<?xml version="1.0" encoding="UTF-8" standalone="no" ?>
<gpx xmlns="http://www.topografix.com/GPX/1/1" xmlns:xsi="http://www.w3.org/2001/XMLSchema-instance" xsi:schemaLocation="http://www.topografix.com/GPX/1/1 http://www.topografix.com/GPX/1/1/gpx.xsd" version="1.1" creator="VisuGPX - https://www.visugpx.com">
  <metadata>
    <name>ski de fond grand bornand</name>
    <desc><![CDATA[boucle tracé pour les premieres neiges]]></desc>
  </metadata>
  <trk>
    <name><![CDATA[ski de fond grand bornand]]></name>
    <trkseg>
      <trkpt lat="45.93545" lon="6.48551">
        <ele>1060.5999755859</ele>
        <time>2013-11-30T13:33:27.000Z</time>
      </trkpt>
      <trkpt lat="45.93545" lon="6.48551">
        <ele>1060.4000244141</ele>
        <time>2013-11-30T13:33:30.000Z</time>
      </trkpt>
      <trkpt lat="45.93538" lon="6.48557">
        <ele>1059.4000244141</ele>
        <time>2013-11-30T13:34:36.000Z</time>
      </trkpt>
      <trkpt lat="45.93531" lon="6.4856">
        <ele>1058.1999511719</ele>
        <time>2013-11-30T13:34:39.000Z</time>
      </trkpt>
      <trkpt lat="45.93513" lon="6.48563">
        <ele>1055.5999755859</ele>
        <time>2013-11-30T13:34:44.000Z</time>
      </trkpt>
      <trkpt lat="45.93502" lon="6.48559">
        <ele>1053.8000488281</ele>
        <time>2013-11-30T13:34:49.000Z</time>
      </trkpt>
      <trkpt lat="45.93501" lon="6.48559">
        <ele>1053.5999755859</ele>
        <time>2013-11-30T13:34:50.000Z</time>
      </trkpt>
      <trkpt lat="45.93493" lon="6.48542">
        <ele>1052.5999755859</ele>
        <time>2013-11-30T13:34:54.000Z</time>
      </trkpt>
      <trkpt lat="45.93494" lon="6.48539">
        <ele>1052.4000244141</ele>
        <time>2013-11-30T13:34:55.000Z</time>
      </trkpt>
      <trkpt lat="45.93494" lon="6.48529">
        <ele>1052.1999511719</ele>
        <time>2013-11-30T13:34:58.000Z</time>
      </trkpt>
      <trkpt lat="45.93496" lon="6.48516">
        <ele>1052</ele>
        <time>2013-11-30T13:35:01.000Z</time>
      </trkpt>
      <trkpt lat="45.93498" lon="6.48501">
        <ele>1051.8000488281</ele>
        <time>2013-11-30T13:35:05.000Z</time>
      </trkpt>
      <trkpt lat="45.93498" lon="6.48479">
        <ele>1051.4000244141</ele>
        <time>2013-11-30T13:35:10.000Z</time>
      </trkpt>
      <trkpt lat="45.93498" lon="6.48463">
        <ele>1051</ele>
        <time>2013-11-30T13:35:14.000Z</time>
      </trkpt>
      <trkpt lat="45.93495" lon="6.48451">
        <ele>1050.4000244141</ele>
        <time>2013-11-30T13:35:17.000Z</time>
      </trkpt>
      <trkpt lat="45.93493" lon="6.48435">
        <ele>1050</ele>
        <time>2013-11-30T13:35:20.000Z</time>
      </trkpt>
      <trkpt lat="45.93492" lon="6.48413">
        <ele>1049.5999755859</ele>
        <time>2013-11-30T13:35:24.000Z</time>
      </trkpt>
      <trkpt lat="45.93493" lon="6.48403">
        <ele>1050</ele>
        <time>2013-11-30T13:35:26.000Z</time>
      </trkpt>
      <trkpt lat="45.93493" lon="6.48376">
        <ele>1051.1999511719</ele>
        <time>2013-11-30T13:35:32.000Z</time>
      </trkpt>
      <trkpt lat="45.93494" lon="6.48362">
        <ele>1051.8000488281</ele>
        <time>2013-11-30T13:35:36.000Z</time>
      </trkpt>
      <trkpt lat="45.93495" lon="6.48348">
        <ele>1052.1999511719</ele>
        <time>2013-11-30T13:35:40.000Z</time>
      </trkpt>
      <trkpt lat="45.93496" lon="6.48332">
        <ele>1053</ele>
        <time>2013-11-30T13:35:44.000Z</time>
      </trkpt>
      <trkpt lat="45.93496" lon="6.48317">
        <ele>1054</ele>
        <time>2013-11-30T13:35:48.000Z</time>
      </trkpt>
      <trkpt lat="45.93496" lon="6.48314">
        <ele>1054.1999511719</ele>
        <time>2013-11-30T13:35:49.000Z</time>
      </trkpt>
      <trkpt lat="45.93493" lon="6.48302">
        <ele>1054.8000488281</ele>
        <time>2013-11-30T13:35:52.000Z</time>
      </trkpt>
      <trkpt lat="45.93481" lon="6.4829">
        <ele>1054.8000488281</ele>
        <time>2013-11-30T13:35:57.000Z</time>
      </trkpt>
      <trkpt lat="45.93479" lon="6.48288">
        <ele>1054.8000488281</ele>
        <time>2013-11-30T13:35:58.000Z</time>
      </trkpt>
      <trkpt lat="45.93477" lon="6.48285">
        <ele>1054.8000488281</ele>
        <time>2013-11-30T13:35:59.000Z</time>
      </trkpt>
      <trkpt lat="45.93472" lon="6.48278">
        <ele>1054.8000488281</ele>
        <time>2013-11-30T13:36:02.000Z</time>
      </trkpt>
      <trkpt lat="45.93469" lon="6.48271">
        <ele>1055</ele>
        <time>2013-11-30T13:36:05.000Z</time>
      </trkpt>
      <trkpt lat="45.93463" lon="6.4825">
        <ele>1055.4000244141</ele>
        <time>2013-11-30T13:36:11.000Z</time>
      </trkpt>
      <trkpt lat="45.93462" lon="6.48246">
        <ele>1055.5999755859</ele>
        <time>2013-11-30T13:36:12.000Z</time>
      </trkpt>
      <trkpt lat="45.93459" lon="6.48232">
        <ele>1056</ele>
        <time>2013-11-30T13:36:16.000Z</time>
      </trkpt>
      <trkpt lat="45.93457" lon="6.48221">
        <ele>1056.1999511719</ele>
        <time>2013-11-30T13:36:19.000Z</time>
      </trkpt>
      <trkpt lat="45.93453" lon="6.48207">
        <ele>1056.5999755859</ele>
        <time>2013-11-30T13:36:23.000Z</time>
      </trkpt>
      <trkpt lat="45.93448" lon="6.48202">
        <ele>1056.1999511719</ele>
        <time>2013-11-30T13:36:26.000Z</time>
      </trkpt>
      <trkpt lat="45.93432" lon="6.48204">
        <ele>1054.5999755859</ele>
        <time>2013-11-30T13:36:31.000Z</time>
      </trkpt>
      <trkpt lat="45.9342" lon="6.48208">
        <ele>1053.1999511719</ele>
        <time>2013-11-30T13:36:34.000Z</time>
      </trkpt>
      <trkpt lat="45.93411" lon="6.48211">
        <ele>1052.5999755859</ele>
        <time>2013-11-30T13:36:36.000Z</time>
      </trkpt>
      <trkpt lat="45.93388" lon="6.48201">
        <ele>1051.8000488281</ele>
        <time>2013-11-30T13:36:42.000Z</time>
      </trkpt>
      <trkpt lat="45.9338" lon="6.48187">
        <ele>1052.1999511719</ele>
        <time>2013-11-30T13:36:46.000Z</time>
      </trkpt>
      <trkpt lat="45.93378" lon="6.4818">
        <ele>1052.4000244141</ele>
        <time>2013-11-30T13:36:48.000Z</time>
      </trkpt>
      <trkpt lat="45.93377" lon="6.48172">
        <ele>1052.8000488281</ele>
        <time>2013-11-30T13:36:50.000Z</time>
      </trkpt>
      <trkpt lat="45.93378" lon="6.48158">
        <ele>1053.4000244141</ele>
        <time>2013-11-30T13:36:53.000Z</time>
      </trkpt>
      <trkpt lat="45.93382" lon="6.48139">
        <ele>1054</ele>
        <time>2013-11-30T13:36:57.000Z</time>
      </trkpt>
      <trkpt lat="45.93385" lon="6.48124">
        <ele>1054.4000244141</ele>
        <time>2013-11-30T13:37:01.000Z</time>
      </trkpt>
      <trkpt lat="45.93384" lon="6.48119">
        <ele>1054.4000244141</ele>
        <time>2013-11-30T13:37:02.000Z</time>
      </trkpt>
      <trkpt lat="45.93382" lon="6.48116">
        <ele>1054.4000244141</ele>
        <time>2013-11-30T13:37:03.000Z</time>
      </trkpt>
      <trkpt lat="45.93371" lon="6.48107">
        <ele>1053.8000488281</ele>
        <time>2013-11-30T13:37:06.000Z</time>
      </trkpt>
      <trkpt lat="45.93351" lon="6.48099">
        <ele>1052.4000244141</ele>
        <time>2013-11-30T13:37:12.000Z</time>
      </trkpt>
      <trkpt lat="45.93334" lon="6.48098">
        <ele>1051</ele>
        <time>2013-11-30T13:37:18.000Z</time>
      </trkpt>
      <trkpt lat="45.93324" lon="6.48099">
        <ele>1051.8000488281</ele>
        <time>2013-11-30T13:37:22.000Z</time>
      </trkpt>
      <trkpt lat="45.93312" lon="6.48104">
        <ele>1053</ele>
        <time>2013-11-30T13:37:26.000Z</time>
      </trkpt>
      <trkpt lat="45.93306" lon="6.48108">
        <ele>1053.4000244141</ele>
        <time>2013-11-30T13:37:28.000Z</time>
      </trkpt>
      <trkpt lat="45.93294" lon="6.48126">
        <ele>1054.1999511719</ele>
        <time>2013-11-30T13:37:33.000Z</time>
      </trkpt>
      <trkpt lat="45.93285" lon="6.48135">
        <ele>1055</ele>
        <time>2013-11-30T13:37:36.000Z</time>
      </trkpt>
      <trkpt lat="45.93282" lon="6.48138">
        <ele>1055.1999511719</ele>
        <time>2013-11-30T13:37:37.000Z</time>
      </trkpt>
      <trkpt lat="45.93272" lon="6.4816">
        <ele>1055.5999755859</ele>
        <time>2013-11-30T13:37:41.000Z</time>
      </trkpt>
      <trkpt lat="45.9327" lon="6.48166">
        <ele>1055.5999755859</ele>
        <time>2013-11-30T13:37:42.000Z</time>
      </trkpt>
      <trkpt lat="45.9327" lon="6.48182">
        <ele>1055.1999511719</ele>
        <time>2013-11-30T13:37:46.000Z</time>
      </trkpt>
      <trkpt lat="45.9327" lon="6.48193">
        <ele>1054.8000488281</ele>
        <time>2013-11-30T13:37:49.000Z</time>
      </trkpt>
      <trkpt lat="45.93271" lon="6.48198">
        <ele>1054.8000488281</ele>
        <time>2013-11-30T13:37:50.000Z</time>
      </trkpt>
      <trkpt lat="45.93271" lon="6.48206">
        <ele>1054.5999755859</ele>
        <time>2013-11-30T13:37:52.000Z</time>
      </trkpt>
      <trkpt lat="45.93271" lon="6.48222">
        <ele>1054.1999511719</ele>
        <time>2013-11-30T13:37:56.000Z</time>
      </trkpt>
      <trkpt lat="45.93272" lon="6.48235">
        <ele>1053.5999755859</ele>
        <time>2013-11-30T13:38:00.000Z</time>
      </trkpt>
      <trkpt lat="45.93271" lon="6.48259">
        <ele>1054.4000244141</ele>
        <time>2013-11-30T13:38:07.000Z</time>
      </trkpt>
      <trkpt lat="45.9327" lon="6.48277">
        <ele>1056.1999511719</ele>
        <time>2013-11-30T13:38:12.000Z</time>
      </trkpt>
      <trkpt lat="45.93269" lon="6.48289">
        <ele>1057.5999755859</ele>
        <time>2013-11-30T13:38:16.000Z</time>
      </trkpt>
      <trkpt lat="45.93268" lon="6.48297">
        <ele>1058.4000244141</ele>
        <time>2013-11-30T13:38:18.000Z</time>
      </trkpt>
      <trkpt lat="45.93268" lon="6.48312">
        <ele>1059.8000488281</ele>
        <time>2013-11-30T13:38:22.000Z</time>
      </trkpt>
      <trkpt lat="45.9327" lon="6.48329">
        <ele>1061.1999511719</ele>
        <time>2013-11-30T13:38:27.000Z</time>
      </trkpt>
      <trkpt lat="45.93272" lon="6.48344">
        <ele>1062.8000488281</ele>
        <time>2013-11-30T13:38:31.000Z</time>
      </trkpt>
      <trkpt lat="45.93274" lon="6.48356">
        <ele>1064.1999511719</ele>
        <time>2013-11-30T13:38:35.000Z</time>
      </trkpt>
      <trkpt lat="45.93276" lon="6.48367">
        <ele>1065</ele>
        <time>2013-11-30T13:38:38.000Z</time>
      </trkpt>
      <trkpt lat="45.93279" lon="6.48378">
        <ele>1065.5999755859</ele>
        <time>2013-11-30T13:38:40.000Z</time>
      </trkpt>
      <trkpt lat="45.93282" lon="6.48393">
        <ele>1066.8000488281</ele>
        <time>2013-11-30T13:38:45.000Z</time>
      </trkpt>
      <trkpt lat="45.93282" lon="6.48396">
        <ele>1067</ele>
        <time>2013-11-30T13:38:46.000Z</time>
      </trkpt>
      <trkpt lat="45.93285" lon="6.48411">
        <ele>1068</ele>
        <time>2013-11-30T13:38:50.000Z</time>
      </trkpt>
      <trkpt lat="45.93286" lon="6.48416">
        <ele>1068.4000244141</ele>
        <time>2013-11-30T13:38:52.000Z</time>
      </trkpt>
      <trkpt lat="45.93292" lon="6.48426">
        <ele>1067</ele>
        <time>2013-11-30T13:38:56.000Z</time>
      </trkpt>
      <trkpt lat="45.93303" lon="6.48434">
        <ele>1063.5999755859</ele>
        <time>2013-11-30T13:39:00.000Z</time>
      </trkpt>
      <trkpt lat="45.93313" lon="6.48424">
        <ele>1059.8000488281</ele>
        <time>2013-11-30T13:39:04.000Z</time>
      </trkpt>
      <trkpt lat="45.93314" lon="6.48414">
        <ele>1059.1999511719</ele>
        <time>2013-11-30T13:39:06.000Z</time>
      </trkpt>
      <trkpt lat="45.9331" lon="6.484">
        <ele>1059.4000244141</ele>
        <time>2013-11-30T13:39:09.000Z</time>
      </trkpt>
      <trkpt lat="45.93305" lon="6.48382">
        <ele>1059.4000244141</ele>
        <time>2013-11-30T13:39:13.000Z</time>
      </trkpt>
      <trkpt lat="45.93302" lon="6.48358">
        <ele>1058.1999511719</ele>
        <time>2013-11-30T13:39:18.000Z</time>
      </trkpt>
      <trkpt lat="45.93303" lon="6.4834">
        <ele>1056.5999755859</ele>
        <time>2013-11-30T13:39:21.000Z</time>
      </trkpt>
      <trkpt lat="45.93314" lon="6.48326">
        <ele>1053.8000488281</ele>
        <time>2013-11-30T13:39:25.000Z</time>
      </trkpt>
      <trkpt lat="45.93317" lon="6.48323">
        <ele>1053</ele>
        <time>2013-11-30T13:39:26.000Z</time>
      </trkpt>
      <trkpt lat="45.93326" lon="6.48308">
        <ele>1050.5999755859</ele>
        <time>2013-11-30T13:39:30.000Z</time>
      </trkpt>
      <trkpt lat="45.93333" lon="6.48285">
        <ele>1048.1999511719</ele>
        <time>2013-11-30T13:39:35.000Z</time>
      </trkpt>
      <trkpt lat="45.93335" lon="6.4828">
        <ele>1047.8000488281</ele>
        <time>2013-11-30T13:39:36.000Z</time>
      </trkpt>
      <trkpt lat="45.93335" lon="6.48264">
        <ele>1047</ele>
        <time>2013-11-30T13:39:40.000Z</time>
      </trkpt>
      <trkpt lat="45.93334" lon="6.48247">
        <ele>1046.1999511719</ele>
        <time>2013-11-30T13:39:43.000Z</time>
      </trkpt>
      <trkpt lat="45.93341" lon="6.48229">
        <ele>1047.8000488281</ele>
        <time>2013-11-30T13:39:48.000Z</time>
      </trkpt>
      <trkpt lat="45.93343" lon="6.48227">
        <ele>1048</ele>
        <time>2013-11-30T13:39:49.000Z</time>
      </trkpt>
      <trkpt lat="45.93347" lon="6.48223">
        <ele>1048.4000244141</ele>
        <time>2013-11-30T13:39:50.000Z</time>
      </trkpt>
      <trkpt lat="45.93358" lon="6.48218">
        <ele>1049.1999511719</ele>
        <time>2013-11-30T13:39:54.000Z</time>
      </trkpt>
      <trkpt lat="45.93364" lon="6.48219">
        <ele>1049.5999755859</ele>
        <time>2013-11-30T13:39:56.000Z</time>
      </trkpt>
      <trkpt lat="45.9338" lon="6.48231">
        <ele>1049.8000488281</ele>
        <time>2013-11-30T13:40:02.000Z</time>
      </trkpt>
      <trkpt lat="45.93389" lon="6.48244">
        <ele>1049.5999755859</ele>
        <time>2013-11-30T13:40:06.000Z</time>
      </trkpt>
      <trkpt lat="45.934" lon="6.48258">
        <ele>1050</ele>
        <time>2013-11-30T13:40:11.000Z</time>
      </trkpt>
      <trkpt lat="45.93409" lon="6.48268">
        <ele>1050.4000244141</ele>
        <time>2013-11-30T13:40:15.000Z</time>
      </trkpt>
      <trkpt lat="45.9342" lon="6.48281">
        <ele>1050.8000488281</ele>
        <time>2013-11-30T13:40:20.000Z</time>
      </trkpt>
      <trkpt lat="45.93432" lon="6.48293">
        <ele>1051.4000244141</ele>
        <time>2013-11-30T13:40:25.000Z</time>
      </trkpt>
      <trkpt lat="45.93447" lon="6.48303">
        <ele>1052</ele>
        <time>2013-11-30T13:40:31.000Z</time>
      </trkpt>
      <trkpt lat="45.93457" lon="6.48311">
        <ele>1052.4000244141</ele>
        <time>2013-11-30T13:40:35.000Z</time>
      </trkpt>
      <trkpt lat="45.93464" lon="6.48319">
        <ele>1052.4000244141</ele>
        <time>2013-11-30T13:40:38.000Z</time>
      </trkpt>
      <trkpt lat="45.93472" lon="6.48332">
        <ele>1052</ele>
        <time>2013-11-30T13:40:42.000Z</time>
      </trkpt>
      <trkpt lat="45.93476" lon="6.48338">
        <ele>1052</ele>
        <time>2013-11-30T13:40:43.000Z</time>
      </trkpt>
      <trkpt lat="45.93484" lon="6.48357">
        <ele>1051.4000244141</ele>
        <time>2013-11-30T13:40:48.000Z</time>
      </trkpt>
      <trkpt lat="45.93489" lon="6.48373">
        <ele>1051</ele>
        <time>2013-11-30T13:40:52.000Z</time>
      </trkpt>
      <trkpt lat="45.93489" lon="6.48377">
        <ele>1050.8000488281</ele>
        <time>2013-11-30T13:40:53.000Z</time>
      </trkpt>
      <trkpt lat="45.9349" lon="6.48398">
        <ele>1050.1999511719</ele>
        <time>2013-11-30T13:40:58.000Z</time>
      </trkpt>
      <trkpt lat="45.93486" lon="6.48413">
        <ele>1049.4000244141</ele>
        <time>2013-11-30T13:41:02.000Z</time>
      </trkpt>
      <trkpt lat="45.93477" lon="6.48425">
        <ele>1048.8000488281</ele>
        <time>2013-11-30T13:41:06.000Z</time>
      </trkpt>
      <trkpt lat="45.93464" lon="6.48433">
        <ele>1048</ele>
        <time>2013-11-30T13:41:10.000Z</time>
      </trkpt>
      <trkpt lat="45.93461" lon="6.48434">
        <ele>1047.8000488281</ele>
        <time>2013-11-30T13:41:11.000Z</time>
      </trkpt>
      <trkpt lat="45.93441" lon="6.48432">
        <ele>1046.4000244141</ele>
        <time>2013-11-30T13:41:16.000Z</time>
      </trkpt>
      <trkpt lat="45.93437" lon="6.48431">
        <ele>1046.1999511719</ele>
        <time>2013-11-30T13:41:17.000Z</time>
      </trkpt>
      <trkpt lat="45.93421" lon="6.48425">
        <ele>1045.1999511719</ele>
        <time>2013-11-30T13:41:21.000Z</time>
      </trkpt>
      <trkpt lat="45.93417" lon="6.48421">
        <ele>1045</ele>
        <time>2013-11-30T13:41:22.000Z</time>
      </trkpt>
      <trkpt lat="45.93404" lon="6.4841">
        <ele>1046.5999755859</ele>
        <time>2013-11-30T13:41:26.000Z</time>
      </trkpt>
      <trkpt lat="45.9339" lon="6.48391">
        <ele>1048.4000244141</ele>
        <time>2013-11-30T13:41:31.000Z</time>
      </trkpt>
      <trkpt lat="45.93385" lon="6.48384">
        <ele>1049</ele>
        <time>2013-11-30T13:41:33.000Z</time>
      </trkpt>
      <trkpt lat="45.93365" lon="6.48368">
        <ele>1050.4000244141</ele>
        <time>2013-11-30T13:41:39.000Z</time>
      </trkpt>
      <trkpt lat="45.93363" lon="6.48367">
        <ele>1050.4000244141</ele>
        <time>2013-11-30T13:41:40.000Z</time>
      </trkpt>
      <trkpt lat="45.93347" lon="6.48377">
        <ele>1051.4000244141</ele>
        <time>2013-11-30T13:41:45.000Z</time>
      </trkpt>
      <trkpt lat="45.93345" lon="6.48394">
        <ele>1051.5999755859</ele>
        <time>2013-11-30T13:41:49.000Z</time>
      </trkpt>
      <trkpt lat="45.93348" lon="6.48401">
        <ele>1051.4000244141</ele>
        <time>2013-11-30T13:41:51.000Z</time>
      </trkpt>
      <trkpt lat="45.93355" lon="6.48415">
        <ele>1051</ele>
        <time>2013-11-30T13:41:55.000Z</time>
      </trkpt>
      <trkpt lat="45.93357" lon="6.48419">
        <ele>1050.8000488281</ele>
        <time>2013-11-30T13:41:56.000Z</time>
      </trkpt>
      <trkpt lat="45.93362" lon="6.48439">
        <ele>1049.8000488281</ele>
        <time>2013-11-30T13:42:02.000Z</time>
      </trkpt>
      <trkpt lat="45.93363" lon="6.48446">
        <ele>1049.5999755859</ele>
        <time>2013-11-30T13:42:04.000Z</time>
      </trkpt>
      <trkpt lat="45.93364" lon="6.48464">
        <ele>1049.1999511719</ele>
        <time>2013-11-30T13:42:09.000Z</time>
      </trkpt>
      <trkpt lat="45.93366" lon="6.48478">
        <ele>1048.8000488281</ele>
        <time>2013-11-30T13:42:13.000Z</time>
      </trkpt>
      <trkpt lat="45.93367" lon="6.48485">
        <ele>1048.4000244141</ele>
        <time>2013-11-30T13:42:15.000Z</time>
      </trkpt>
      <trkpt lat="45.93367" lon="6.48504">
        <ele>1048.4000244141</ele>
        <time>2013-11-30T13:42:21.000Z</time>
      </trkpt>
      <trkpt lat="45.93368" lon="6.48507">
        <ele>1048.4000244141</ele>
        <time>2013-11-30T13:42:22.000Z</time>
      </trkpt>
      <trkpt lat="45.9338" lon="6.48513">
        <ele>1048</ele>
        <time>2013-11-30T13:42:27.000Z</time>
      </trkpt>
      <trkpt lat="45.93391" lon="6.48514">
        <ele>1047</ele>
        <time>2013-11-30T13:42:31.000Z</time>
      </trkpt>
      <trkpt lat="45.93394" lon="6.48514">
        <ele>1046.8000488281</ele>
        <time>2013-11-30T13:42:32.000Z</time>
      </trkpt>
      <trkpt lat="45.93409" lon="6.48518">
        <ele>1045.8000488281</ele>
        <time>2013-11-30T13:42:37.000Z</time>
      </trkpt>
      <trkpt lat="45.93419" lon="6.4852">
        <ele>1045.4000244141</ele>
        <time>2013-11-30T13:42:41.000Z</time>
      </trkpt>
      <trkpt lat="45.93431" lon="6.48518">
        <ele>1046.4000244141</ele>
        <time>2013-11-30T13:42:45.000Z</time>
      </trkpt>
      <trkpt lat="45.93433" lon="6.48518">
        <ele>1046.5999755859</ele>
        <time>2013-11-30T13:42:46.000Z</time>
      </trkpt>
      <trkpt lat="45.93447" lon="6.48521">
        <ele>1047.8000488281</ele>
        <time>2013-11-30T13:42:51.000Z</time>
      </trkpt>
      <trkpt lat="45.93448" lon="6.4852">
        <ele>1048</ele>
        <time>2013-11-30T13:42:52.000Z</time>
      </trkpt>
      <trkpt lat="45.93462" lon="6.48522">
        <ele>1049.1999511719</ele>
        <time>2013-11-30T13:42:57.000Z</time>
      </trkpt>
      <trkpt lat="45.93475" lon="6.48526">
        <ele>1050.5999755859</ele>
        <time>2013-11-30T13:43:02.000Z</time>
      </trkpt>
      <trkpt lat="45.93481" lon="6.48534">
        <ele>1051.1999511719</ele>
        <time>2013-11-30T13:43:05.000Z</time>
      </trkpt>
      <trkpt lat="45.93481" lon="6.48552">
        <ele>1051.8000488281</ele>
        <time>2013-11-30T13:43:10.000Z</time>
      </trkpt>
      <trkpt lat="45.9348" lon="6.48567">
        <ele>1052.1999511719</ele>
        <time>2013-11-30T13:43:14.000Z</time>
      </trkpt>
      <trkpt lat="45.93473" lon="6.48582">
        <ele>1052.4000244141</ele>
        <time>2013-11-30T13:43:19.000Z</time>
      </trkpt>
      <trkpt lat="45.93462" lon="6.48588">
        <ele>1051.8000488281</ele>
        <time>2013-11-30T13:43:23.000Z</time>
      </trkpt>
      <trkpt lat="45.93451" lon="6.48586">
        <ele>1051</ele>
        <time>2013-11-30T13:43:27.000Z</time>
      </trkpt>
      <trkpt lat="45.9344" lon="6.48583">
        <ele>1050.4000244141</ele>
        <time>2013-11-30T13:43:31.000Z</time>
      </trkpt>
      <trkpt lat="45.93429" lon="6.4858">
        <ele>1049.5999755859</ele>
        <time>2013-11-30T13:43:36.000Z</time>
      </trkpt>
      <trkpt lat="45.93415" lon="6.48579">
        <ele>1048.8000488281</ele>
        <time>2013-11-30T13:43:41.000Z</time>
      </trkpt>
      <trkpt lat="45.93403" lon="6.4858">
        <ele>1050</ele>
        <time>2013-11-30T13:43:46.000Z</time>
      </trkpt>
      <trkpt lat="45.93398" lon="6.48583">
        <ele>1050.5999755859</ele>
        <time>2013-11-30T13:43:49.000Z</time>
      </trkpt>
      <trkpt lat="45.93391" lon="6.48602">
        <ele>1052.5999755859</ele>
        <time>2013-11-30T13:43:54.000Z</time>
      </trkpt>
      <trkpt lat="45.93391" lon="6.48612">
        <ele>1053.4000244141</ele>
        <time>2013-11-30T13:43:57.000Z</time>
      </trkpt>
      <trkpt lat="45.93393" lon="6.48623">
        <ele>1054</ele>
        <time>2013-11-30T13:44:00.000Z</time>
      </trkpt>
      <trkpt lat="45.93399" lon="6.48644">
        <ele>1054.4000244141</ele>
        <time>2013-11-30T13:44:06.000Z</time>
      </trkpt>
      <trkpt lat="45.93407" lon="6.48667">
        <ele>1053.4000244141</ele>
        <time>2013-11-30T13:44:12.000Z</time>
      </trkpt>
      <trkpt lat="45.93409" lon="6.48684">
        <ele>1054.1999511719</ele>
        <time>2013-11-30T13:44:16.000Z</time>
      </trkpt>
      <trkpt lat="45.9341" lon="6.48703">
        <ele>1055</ele>
        <time>2013-11-30T13:44:21.000Z</time>
      </trkpt>
      <trkpt lat="45.9341" lon="6.48707">
        <ele>1055.4000244141</ele>
        <time>2013-11-30T13:44:23.000Z</time>
      </trkpt>
      <trkpt lat="45.93409" lon="6.48723">
        <ele>1057.1999511719</ele>
        <time>2013-11-30T13:44:26.000Z</time>
      </trkpt>
      <trkpt lat="45.9341" lon="6.48737">
        <ele>1057.5999755859</ele>
        <time>2013-11-30T13:44:29.000Z</time>
      </trkpt>
      <trkpt lat="45.93412" lon="6.48753">
        <ele>1058</ele>
        <time>2013-11-30T13:44:33.000Z</time>
      </trkpt>
      <trkpt lat="45.93416" lon="6.4877">
        <ele>1058.5999755859</ele>
        <time>2013-11-30T13:44:39.000Z</time>
      </trkpt>
      <trkpt lat="45.93419" lon="6.48785">
        <ele>1060.4000244141</ele>
        <time>2013-11-30T13:44:43.000Z</time>
      </trkpt>
      <trkpt lat="45.93421" lon="6.48795">
        <ele>1061.8000488281</ele>
        <time>2013-11-30T13:44:45.000Z</time>
      </trkpt>
      <trkpt lat="45.93422" lon="6.48798">
        <ele>1062</ele>
        <time>2013-11-30T13:44:46.000Z</time>
      </trkpt>
      <trkpt lat="45.93427" lon="6.48817">
        <ele>1064.5999755859</ele>
        <time>2013-11-30T13:44:52.000Z</time>
      </trkpt>
      <trkpt lat="45.9343" lon="6.48821">
        <ele>1064.8000488281</ele>
        <time>2013-11-30T13:44:53.000Z</time>
      </trkpt>
      <trkpt lat="45.93435" lon="6.48837">
        <ele>1066.4000244141</ele>
        <time>2013-11-30T13:44:58.000Z</time>
      </trkpt>
      <trkpt lat="45.93437" lon="6.4884">
        <ele>1066.5999755859</ele>
        <time>2013-11-30T13:44:59.000Z</time>
      </trkpt>
      <trkpt lat="45.93444" lon="6.48854">
        <ele>1068.1999511719</ele>
        <time>2013-11-30T13:45:03.000Z</time>
      </trkpt>
      <trkpt lat="45.93446" lon="6.48863">
        <ele>1069.1999511719</ele>
        <time>2013-11-30T13:45:06.000Z</time>
      </trkpt>
      <trkpt lat="45.9345" lon="6.48876">
        <ele>1070.4000244141</ele>
        <time>2013-11-30T13:45:10.000Z</time>
      </trkpt>
      <trkpt lat="45.93452" lon="6.48887">
        <ele>1071.4000244141</ele>
        <time>2013-11-30T13:45:13.000Z</time>
      </trkpt>
      <trkpt lat="45.93452" lon="6.4889">
        <ele>1071.8000488281</ele>
        <time>2013-11-30T13:45:14.000Z</time>
      </trkpt>
      <trkpt lat="45.93455" lon="6.48906">
        <ele>1073.1999511719</ele>
        <time>2013-11-30T13:45:19.000Z</time>
      </trkpt>
      <trkpt lat="45.93455" lon="6.4891">
        <ele>1073.5999755859</ele>
        <time>2013-11-30T13:45:20.000Z</time>
      </trkpt>
      <trkpt lat="45.93459" lon="6.48927">
        <ele>1075.8000488281</ele>
        <time>2013-11-30T13:45:26.000Z</time>
      </trkpt>
      <trkpt lat="45.93466" lon="6.48942">
        <ele>1076.4000244141</ele>
        <time>2013-11-30T13:45:31.000Z</time>
      </trkpt>
      <trkpt lat="45.93471" lon="6.48955">
        <ele>1076.8000488281</ele>
        <time>2013-11-30T13:45:34.000Z</time>
      </trkpt>
      <trkpt lat="45.93478" lon="6.48966">
        <ele>1076</ele>
        <time>2013-11-30T13:45:39.000Z</time>
      </trkpt>
      <trkpt lat="45.93483" lon="6.48975">
        <ele>1075.1999511719</ele>
        <time>2013-11-30T13:45:42.000Z</time>
      </trkpt>
      <trkpt lat="45.93489" lon="6.48987">
        <ele>1074.1999511719</ele>
        <time>2013-11-30T13:45:46.000Z</time>
      </trkpt>
      <trkpt lat="45.9349" lon="6.4899">
        <ele>1074</ele>
        <time>2013-11-30T13:45:47.000Z</time>
      </trkpt>
      <trkpt lat="45.93498" lon="6.49004">
        <ele>1072</ele>
        <time>2013-11-30T13:45:53.000Z</time>
      </trkpt>
      <trkpt lat="45.93508" lon="6.49016">
        <ele>1072.1999511719</ele>
        <time>2013-11-30T13:45:58.000Z</time>
      </trkpt>
      <trkpt lat="45.93514" lon="6.49025">
        <ele>1073</ele>
        <time>2013-11-30T13:46:03.000Z</time>
      </trkpt>
      <trkpt lat="45.93522" lon="6.49035">
        <ele>1073.8000488281</ele>
        <time>2013-11-30T13:46:07.000Z</time>
      </trkpt>
      <trkpt lat="45.93529" lon="6.49046">
        <ele>1074.4000244141</ele>
        <time>2013-11-30T13:46:11.000Z</time>
      </trkpt>
      <trkpt lat="45.93536" lon="6.49054">
        <ele>1074.1999511719</ele>
        <time>2013-11-30T13:46:14.000Z</time>
      </trkpt>
      <trkpt lat="45.93541" lon="6.49061">
        <ele>1074.4000244141</ele>
        <time>2013-11-30T13:46:17.000Z</time>
      </trkpt>
      <trkpt lat="45.93543" lon="6.49066">
        <ele>1074.4000244141</ele>
        <time>2013-11-30T13:46:19.000Z</time>
      </trkpt>
      <trkpt lat="45.93551" lon="6.49076">
        <ele>1074</ele>
        <time>2013-11-30T13:46:23.000Z</time>
      </trkpt>
      <trkpt lat="45.93555" lon="6.4908">
        <ele>1073.5999755859</ele>
        <time>2013-11-30T13:46:24.000Z</time>
      </trkpt>
      <trkpt lat="45.93561" lon="6.4909">
        <ele>1073.5999755859</ele>
        <time>2013-11-30T13:46:29.000Z</time>
      </trkpt>
      <trkpt lat="45.9357" lon="6.49099">
        <ele>1072.8000488281</ele>
        <time>2013-11-30T13:46:32.000Z</time>
      </trkpt>
      <trkpt lat="45.93576" lon="6.49108">
        <ele>1072.1999511719</ele>
        <time>2013-11-30T13:46:36.000Z</time>
      </trkpt>
      <trkpt lat="45.93578" lon="6.49111">
        <ele>1071.8000488281</ele>
        <time>2013-11-30T13:46:37.000Z</time>
      </trkpt>
      <trkpt lat="45.93585" lon="6.49119">
        <ele>1071.1999511719</ele>
        <time>2013-11-30T13:46:41.000Z</time>
      </trkpt>
      <trkpt lat="45.93587" lon="6.49121">
        <ele>1071.4000244141</ele>
        <time>2013-11-30T13:46:42.000Z</time>
      </trkpt>
      <trkpt lat="45.93594" lon="6.49129">
        <ele>1071.8000488281</ele>
        <time>2013-11-30T13:46:45.000Z</time>
      </trkpt>
      <trkpt lat="45.93598" lon="6.49133">
        <ele>1072</ele>
        <time>2013-11-30T13:46:47.000Z</time>
      </trkpt>
      <trkpt lat="45.936" lon="6.49136">
        <ele>1072</ele>
        <time>2013-11-30T13:46:49.000Z</time>
      </trkpt>
      <trkpt lat="45.9361" lon="6.49149">
        <ele>1072.4000244141</ele>
        <time>2013-11-30T13:46:54.000Z</time>
      </trkpt>
      <trkpt lat="45.93612" lon="6.49151">
        <ele>1072.5999755859</ele>
        <time>2013-11-30T13:46:55.000Z</time>
      </trkpt>
      <trkpt lat="45.93613" lon="6.49154">
        <ele>1072.5999755859</ele>
        <time>2013-11-30T13:46:56.000Z</time>
      </trkpt>
      <trkpt lat="45.93622" lon="6.49166">
        <ele>1072.8000488281</ele>
        <time>2013-11-30T13:47:01.000Z</time>
      </trkpt>
      <trkpt lat="45.9363" lon="6.4918">
        <ele>1074.1999511719</ele>
        <time>2013-11-30T13:47:06.000Z</time>
      </trkpt>
      <trkpt lat="45.93634" lon="6.49191">
        <ele>1075.4000244141</ele>
        <time>2013-11-30T13:47:09.000Z</time>
      </trkpt>
      <trkpt lat="45.93641" lon="6.49204">
        <ele>1076.1999511719</ele>
        <time>2013-11-30T13:47:13.000Z</time>
      </trkpt>
      <trkpt lat="45.93647" lon="6.49216">
        <ele>1076.5999755859</ele>
        <time>2013-11-30T13:47:17.000Z</time>
      </trkpt>
      <trkpt lat="45.93649" lon="6.49219">
        <ele>1076.5999755859</ele>
        <time>2013-11-30T13:47:18.000Z</time>
      </trkpt>
      <trkpt lat="45.93657" lon="6.49229">
        <ele>1076.1999511719</ele>
        <time>2013-11-30T13:47:23.000Z</time>
      </trkpt>
      <trkpt lat="45.93664" lon="6.49236">
        <ele>1075.4000244141</ele>
        <time>2013-11-30T13:47:25.000Z</time>
      </trkpt>
      <trkpt lat="45.93673" lon="6.49246">
        <ele>1075.5999755859</ele>
        <time>2013-11-30T13:47:30.000Z</time>
      </trkpt>
      <trkpt lat="45.93687" lon="6.49253">
        <ele>1076.8000488281</ele>
        <time>2013-11-30T13:47:36.000Z</time>
      </trkpt>
      <trkpt lat="45.93698" lon="6.49258">
        <ele>1077.4000244141</ele>
        <time>2013-11-30T13:47:42.000Z</time>
      </trkpt>
      <trkpt lat="45.93712" lon="6.49266">
        <ele>1078.4000244141</ele>
        <time>2013-11-30T13:47:48.000Z</time>
      </trkpt>
      <trkpt lat="45.93721" lon="6.49275">
        <ele>1079</ele>
        <time>2013-11-30T13:47:52.000Z</time>
      </trkpt>
      <trkpt lat="45.93723" lon="6.49277">
        <ele>1079</ele>
        <time>2013-11-30T13:47:53.000Z</time>
      </trkpt>
      <trkpt lat="45.9373" lon="6.49292">
        <ele>1080</ele>
        <time>2013-11-30T13:47:59.000Z</time>
      </trkpt>
      <trkpt lat="45.93734" lon="6.493">
        <ele>1080.1999511719</ele>
        <time>2013-11-30T13:48:03.000Z</time>
      </trkpt>
      <trkpt lat="45.9374" lon="6.49317">
        <ele>1080.5999755859</ele>
        <time>2013-11-30T13:48:07.000Z</time>
      </trkpt>
      <trkpt lat="45.93746" lon="6.49329">
        <ele>1080.4000244141</ele>
        <time>2013-11-30T13:48:11.000Z</time>
      </trkpt>
      <trkpt lat="45.93755" lon="6.49338">
        <ele>1080.5999755859</ele>
        <time>2013-11-30T13:48:15.000Z</time>
      </trkpt>
      <trkpt lat="45.93762" lon="6.49342">
        <ele>1081</ele>
        <time>2013-11-30T13:48:19.000Z</time>
      </trkpt>
      <trkpt lat="45.93773" lon="6.49347">
        <ele>1081.1999511719</ele>
        <time>2013-11-30T13:48:24.000Z</time>
      </trkpt>
      <trkpt lat="45.93782" lon="6.49353">
        <ele>1081.1999511719</ele>
        <time>2013-11-30T13:48:28.000Z</time>
      </trkpt>
      <trkpt lat="45.93791" lon="6.49359">
        <ele>1081.1999511719</ele>
        <time>2013-11-30T13:48:33.000Z</time>
      </trkpt>
      <trkpt lat="45.93793" lon="6.49362">
        <ele>1081.1999511719</ele>
        <time>2013-11-30T13:48:34.000Z</time>
      </trkpt>
      <trkpt lat="45.93799" lon="6.49368">
        <ele>1081.1999511719</ele>
        <time>2013-11-30T13:48:37.000Z</time>
      </trkpt>
      <trkpt lat="45.93806" lon="6.49376">
        <ele>1081</ele>
        <time>2013-11-30T13:48:41.000Z</time>
      </trkpt>
      <trkpt lat="45.93809" lon="6.4938">
        <ele>1080.8000488281</ele>
        <time>2013-11-30T13:48:43.000Z</time>
      </trkpt>
      <trkpt lat="45.9382" lon="6.49391">
        <ele>1080</ele>
        <time>2013-11-30T13:48:49.000Z</time>
      </trkpt>
      <trkpt lat="45.93828" lon="6.494">
        <ele>1078.8000488281</ele>
        <time>2013-11-30T13:48:54.000Z</time>
      </trkpt>
      <trkpt lat="45.93834" lon="6.49406">
        <ele>1078.1999511719</ele>
        <time>2013-11-30T13:48:57.000Z</time>
      </trkpt>
      <trkpt lat="45.93837" lon="6.49411">
        <ele>1078.4000244141</ele>
        <time>2013-11-30T13:48:59.000Z</time>
      </trkpt>
      <trkpt lat="45.93845" lon="6.49421">
        <ele>1079.8000488281</ele>
        <time>2013-11-30T13:49:04.000Z</time>
      </trkpt>
      <trkpt lat="45.93851" lon="6.49429">
        <ele>1081.4000244141</ele>
        <time>2013-11-30T13:49:08.000Z</time>
      </trkpt>
      <trkpt lat="45.9386" lon="6.49441">
        <ele>1083.1999511719</ele>
        <time>2013-11-30T13:49:13.000Z</time>
      </trkpt>
      <trkpt lat="45.93866" lon="6.49451">
        <ele>1084.1999511719</ele>
        <time>2013-11-30T13:49:17.000Z</time>
      </trkpt>
      <trkpt lat="45.93868" lon="6.49454">
        <ele>1084.5999755859</ele>
        <time>2013-11-30T13:49:18.000Z</time>
      </trkpt>
      <trkpt lat="45.9387" lon="6.4946">
        <ele>1085</ele>
        <time>2013-11-30T13:49:20.000Z</time>
      </trkpt>
      <trkpt lat="45.93867" lon="6.49474">
        <ele>1085.5999755859</ele>
        <time>2013-11-30T13:49:26.000Z</time>
      </trkpt>
      <trkpt lat="45.93864" lon="6.49482">
        <ele>1086</ele>
        <time>2013-11-30T13:49:31.000Z</time>
      </trkpt>
      <trkpt lat="45.93863" lon="6.49484">
        <ele>1086</ele>
        <time>2013-11-30T13:49:32.000Z</time>
      </trkpt>
      <trkpt lat="45.93855" lon="6.495">
        <ele>1087</ele>
        <time>2013-11-30T13:49:38.000Z</time>
      </trkpt>
      <trkpt lat="45.93851" lon="6.49516">
        <ele>1090.1999511719</ele>
        <time>2013-11-30T13:49:43.000Z</time>
      </trkpt>
      <trkpt lat="45.93851" lon="6.49519">
        <ele>1090.5999755859</ele>
        <time>2013-11-30T13:49:44.000Z</time>
      </trkpt>
      <trkpt lat="45.93853" lon="6.49528">
        <ele>1092.1999511719</ele>
        <time>2013-11-30T13:49:48.000Z</time>
      </trkpt>
      <trkpt lat="45.9386" lon="6.4954">
        <ele>1093.5999755859</ele>
        <time>2013-11-30T13:49:52.000Z</time>
      </trkpt>
      <trkpt lat="45.93868" lon="6.49552">
        <ele>1094.5999755859</ele>
        <time>2013-11-30T13:49:57.000Z</time>
      </trkpt>
      <trkpt lat="45.93875" lon="6.49563">
        <ele>1095</ele>
        <time>2013-11-30T13:50:01.000Z</time>
      </trkpt>
      <trkpt lat="45.93879" lon="6.4957">
        <ele>1095.1999511719</ele>
        <time>2013-11-30T13:50:03.000Z</time>
      </trkpt>
      <trkpt lat="45.93888" lon="6.49587">
        <ele>1095.4000244141</ele>
        <time>2013-11-30T13:50:09.000Z</time>
      </trkpt>
      <trkpt lat="45.93892" lon="6.49594">
        <ele>1095.5999755859</ele>
        <time>2013-11-30T13:50:13.000Z</time>
      </trkpt>
      <trkpt lat="45.939" lon="6.49608">
        <ele>1095.5999755859</ele>
        <time>2013-11-30T13:50:17.000Z</time>
      </trkpt>
      <trkpt lat="45.93908" lon="6.49615">
        <ele>1094.8000488281</ele>
        <time>2013-11-30T13:50:21.000Z</time>
      </trkpt>
      <trkpt lat="45.93911" lon="6.49616">
        <ele>1094.1999511719</ele>
        <time>2013-11-30T13:50:23.000Z</time>
      </trkpt>
      <trkpt lat="45.93919" lon="6.49631">
        <ele>1094.8000488281</ele>
        <time>2013-11-30T13:50:29.000Z</time>
      </trkpt>
      <trkpt lat="45.93926" lon="6.4964">
        <ele>1095.4000244141</ele>
        <time>2013-11-30T13:50:32.000Z</time>
      </trkpt>
      <trkpt lat="45.93933" lon="6.4965">
        <ele>1096</ele>
        <time>2013-11-30T13:50:37.000Z</time>
      </trkpt>
      <trkpt lat="45.93934" lon="6.4965">
        <ele>1096</ele>
        <time>2013-11-30T13:50:38.000Z</time>
      </trkpt>
      <trkpt lat="45.93939" lon="6.49652">
        <ele>1095.5999755859</ele>
        <time>2013-11-30T13:50:42.000Z</time>
      </trkpt>
      <trkpt lat="45.93945" lon="6.49651">
        <ele>1095</ele>
        <time>2013-11-30T13:50:47.000Z</time>
      </trkpt>
      <trkpt lat="45.93951" lon="6.49652">
        <ele>1094.4000244141</ele>
        <time>2013-11-30T13:50:50.000Z</time>
      </trkpt>
      <trkpt lat="45.93962" lon="6.49659">
        <ele>1094</ele>
        <time>2013-11-30T13:50:54.000Z</time>
      </trkpt>
      <trkpt lat="45.93969" lon="6.49668">
        <ele>1094</ele>
        <time>2013-11-30T13:50:57.000Z</time>
      </trkpt>
      <trkpt lat="45.93973" lon="6.49672">
        <ele>1094.1999511719</ele>
        <time>2013-11-30T13:50:58.000Z</time>
      </trkpt>
      <trkpt lat="45.9398" lon="6.49682">
        <ele>1094.5999755859</ele>
        <time>2013-11-30T13:51:03.000Z</time>
      </trkpt>
      <trkpt lat="45.93988" lon="6.49688">
        <ele>1094.1999511719</ele>
        <time>2013-11-30T13:51:07.000Z</time>
      </trkpt>
      <trkpt lat="45.93994" lon="6.49694">
        <ele>1094</ele>
        <time>2013-11-30T13:51:11.000Z</time>
      </trkpt>
      <trkpt lat="45.93996" lon="6.49696">
        <ele>1094</ele>
        <time>2013-11-30T13:51:12.000Z</time>
      </trkpt>
      <trkpt lat="45.93999" lon="6.497">
        <ele>1093.8000488281</ele>
        <time>2013-11-30T13:51:14.000Z</time>
      </trkpt>
      <trkpt lat="45.94006" lon="6.4971">
        <ele>1095</ele>
        <time>2013-11-30T13:51:18.000Z</time>
      </trkpt>
      <trkpt lat="45.94011" lon="6.49719">
        <ele>1096.1999511719</ele>
        <time>2013-11-30T13:51:21.000Z</time>
      </trkpt>
      <trkpt lat="45.94014" lon="6.49723">
        <ele>1096.8000488281</ele>
        <time>2013-11-30T13:51:24.000Z</time>
      </trkpt>
      <trkpt lat="45.94022" lon="6.49735">
        <ele>1098.4000244141</ele>
        <time>2013-11-30T13:51:29.000Z</time>
      </trkpt>
      <trkpt lat="45.94024" lon="6.49738">
        <ele>1098.8000488281</ele>
        <time>2013-11-30T13:51:31.000Z</time>
      </trkpt>
      <trkpt lat="45.9403" lon="6.49741">
        <ele>1099.4000244141</ele>
        <time>2013-11-30T13:51:34.000Z</time>
      </trkpt>
      <trkpt lat="45.94037" lon="6.49746">
        <ele>1100.4000244141</ele>
        <time>2013-11-30T13:51:39.000Z</time>
      </trkpt>
      <trkpt lat="45.94043" lon="6.49755">
        <ele>1101.5999755859</ele>
        <time>2013-11-30T13:51:44.000Z</time>
      </trkpt>
      <trkpt lat="45.94049" lon="6.49762">
        <ele>1102.8000488281</ele>
        <time>2013-11-30T13:51:48.000Z</time>
      </trkpt>
      <trkpt lat="45.94054" lon="6.49769">
        <ele>1103.8000488281</ele>
        <time>2013-11-30T13:51:51.000Z</time>
      </trkpt>
      <trkpt lat="45.9406" lon="6.49775">
        <ele>1104.4000244141</ele>
        <time>2013-11-30T13:51:55.000Z</time>
      </trkpt>
      <trkpt lat="45.94064" lon="6.49781">
        <ele>1105</ele>
        <time>2013-11-30T13:51:59.000Z</time>
      </trkpt>
      <trkpt lat="45.94069" lon="6.49786">
        <ele>1105.1999511719</ele>
        <time>2013-11-30T13:52:03.000Z</time>
      </trkpt>
      <trkpt lat="45.94072" lon="6.49797">
        <ele>1106</ele>
        <time>2013-11-30T13:52:08.000Z</time>
      </trkpt>
      <trkpt lat="45.94074" lon="6.49809">
        <ele>1106.5999755859</ele>
        <time>2013-11-30T13:52:12.000Z</time>
      </trkpt>
      <trkpt lat="45.94077" lon="6.49822">
        <ele>1107.1999511719</ele>
        <time>2013-11-30T13:52:15.000Z</time>
      </trkpt>
      <trkpt lat="45.94077" lon="6.49835">
        <ele>1108.1999511719</ele>
        <time>2013-11-30T13:52:19.000Z</time>
      </trkpt>
      <trkpt lat="45.94076" lon="6.49845">
        <ele>1109.5999755859</ele>
        <time>2013-11-30T13:52:21.000Z</time>
      </trkpt>
      <trkpt lat="45.94073" lon="6.4985">
        <ele>1110.8000488281</ele>
        <time>2013-11-30T13:52:27.000Z</time>
      </trkpt>
      <trkpt lat="45.9407" lon="6.49853">
        <ele>1111.5999755859</ele>
        <time>2013-11-30T13:52:58.000Z</time>
      </trkpt>
      <trkpt lat="45.94068" lon="6.49853">
        <ele>1112</ele>
        <time>2013-11-30T13:53:02.000Z</time>
      </trkpt>
      <trkpt lat="45.94067" lon="6.49863">
        <ele>1113.8000488281</ele>
        <time>2013-11-30T13:54:19.000Z</time>
      </trkpt>
      <trkpt lat="45.94068" lon="6.49863">
        <ele>1113.4000244141</ele>
        <time>2013-11-30T13:54:24.000Z</time>
      </trkpt>
      <trkpt lat="45.94067" lon="6.49861">
        <ele>1113.4000244141</ele>
        <time>2013-11-30T13:54:31.000Z</time>
      </trkpt>
      <trkpt lat="45.94068" lon="6.49856">
        <ele>1112.4000244141</ele>
        <time>2013-11-30T13:54:41.000Z</time>
      </trkpt>
      <trkpt lat="45.94072" lon="6.49858">
        <ele>1112</ele>
        <time>2013-11-30T13:54:47.000Z</time>
      </trkpt>
      <trkpt lat="45.94076" lon="6.49864">
        <ele>1112</ele>
        <time>2013-11-30T13:54:50.000Z</time>
      </trkpt>
      <trkpt lat="45.94086" lon="6.49872">
        <ele>1111.8000488281</ele>
        <time>2013-11-30T13:54:56.000Z</time>
      </trkpt>
      <trkpt lat="45.94087" lon="6.49875">
        <ele>1112.1999511719</ele>
        <time>2013-11-30T13:54:57.000Z</time>
      </trkpt>
      <trkpt lat="45.9409" lon="6.49885">
        <ele>1113.1999511719</ele>
        <time>2013-11-30T13:55:01.000Z</time>
      </trkpt>
      <trkpt lat="45.94094" lon="6.49894">
        <ele>1114.1999511719</ele>
        <time>2013-11-30T13:55:07.000Z</time>
      </trkpt>
      <trkpt lat="45.94097" lon="6.49898">
        <ele>1114.8000488281</ele>
        <time>2013-11-30T13:55:09.000Z</time>
      </trkpt>
      <trkpt lat="45.94104" lon="6.49915">
        <ele>1116.1999511719</ele>
        <time>2013-11-30T13:55:16.000Z</time>
      </trkpt>
      <trkpt lat="45.9411" lon="6.49925">
        <ele>1116.8000488281</ele>
        <time>2013-11-30T13:55:19.000Z</time>
      </trkpt>
      <trkpt lat="45.94118" lon="6.49949">
        <ele>1118</ele>
        <time>2013-11-30T13:55:26.000Z</time>
      </trkpt>
      <trkpt lat="45.94119" lon="6.49951">
        <ele>1118</ele>
        <time>2013-11-30T13:55:27.000Z</time>
      </trkpt>
      <trkpt lat="45.9412" lon="6.49959">
        <ele>1118.4000244141</ele>
        <time>2013-11-30T13:55:29.000Z</time>
      </trkpt>
      <trkpt lat="45.94124" lon="6.49972">
        <ele>1118.4000244141</ele>
        <time>2013-11-30T13:55:34.000Z</time>
      </trkpt>
      <trkpt lat="45.94126" lon="6.49978">
        <ele>1118.1999511719</ele>
        <time>2013-11-30T13:55:38.000Z</time>
      </trkpt>
      <trkpt lat="45.94129" lon="6.49987">
        <ele>1118</ele>
        <time>2013-11-30T13:55:42.000Z</time>
      </trkpt>
      <trkpt lat="45.9413" lon="6.4999">
        <ele>1117.8000488281</ele>
        <time>2013-11-30T13:55:44.000Z</time>
      </trkpt>
      <trkpt lat="45.94134" lon="6.50001">
        <ele>1117.1999511719</ele>
        <time>2013-11-30T13:55:49.000Z</time>
      </trkpt>
      <trkpt lat="45.94138" lon="6.50008">
        <ele>1117.1999511719</ele>
        <time>2013-11-30T13:55:54.000Z</time>
      </trkpt>
      <trkpt lat="45.94144" lon="6.50014">
        <ele>1116</ele>
        <time>2013-11-30T13:55:58.000Z</time>
      </trkpt>
      <trkpt lat="45.94155" lon="6.50019">
        <ele>1113.5999755859</ele>
        <time>2013-11-30T13:56:02.000Z</time>
      </trkpt>
      <trkpt lat="45.94159" lon="6.50021">
        <ele>1112.5999755859</ele>
        <time>2013-11-30T13:56:03.000Z</time>
      </trkpt>
      <trkpt lat="45.94175" lon="6.50031">
        <ele>1110.4000244141</ele>
        <time>2013-11-30T13:56:07.000Z</time>
      </trkpt>
      <trkpt lat="45.94194" lon="6.50046">
        <ele>1109.1999511719</ele>
        <time>2013-11-30T13:56:11.000Z</time>
      </trkpt>
      <trkpt lat="45.94206" lon="6.50058">
        <ele>1108</ele>
        <time>2013-11-30T13:56:14.000Z</time>
      </trkpt>
      <trkpt lat="45.94214" lon="6.50067">
        <ele>1107</ele>
        <time>2013-11-30T13:56:17.000Z</time>
      </trkpt>
      <trkpt lat="45.94221" lon="6.50078">
        <ele>1106</ele>
        <time>2013-11-30T13:56:21.000Z</time>
      </trkpt>
      <trkpt lat="45.94224" lon="6.50082">
        <ele>1105.4000244141</ele>
        <time>2013-11-30T13:56:23.000Z</time>
      </trkpt>
      <trkpt lat="45.94233" lon="6.50096">
        <ele>1104.8000488281</ele>
        <time>2013-11-30T13:56:27.000Z</time>
      </trkpt>
      <trkpt lat="45.94241" lon="6.50109">
        <ele>1104.1999511719</ele>
        <time>2013-11-30T13:56:32.000Z</time>
      </trkpt>
      <trkpt lat="45.94243" lon="6.50112">
        <ele>1103.8000488281</ele>
        <time>2013-11-30T13:56:33.000Z</time>
      </trkpt>
      <trkpt lat="45.94244" lon="6.50118">
        <ele>1104</ele>
        <time>2013-11-30T13:56:34.000Z</time>
      </trkpt>
      <trkpt lat="45.9425" lon="6.50133">
        <ele>1103.5999755859</ele>
        <time>2013-11-30T13:56:39.000Z</time>
      </trkpt>
      <trkpt lat="45.94251" lon="6.50135">
        <ele>1103.5999755859</ele>
        <time>2013-11-30T13:56:41.000Z</time>
      </trkpt>
      <trkpt lat="45.94253" lon="6.50135">
        <ele>1103.5999755859</ele>
        <time>2013-11-30T13:56:42.000Z</time>
      </trkpt>
      <trkpt lat="45.94255" lon="6.50135">
        <ele>1103.4000244141</ele>
        <time>2013-11-30T13:56:43.000Z</time>
      </trkpt>
      <trkpt lat="45.94265" lon="6.50131">
        <ele>1102.8000488281</ele>
        <time>2013-11-30T13:56:48.000Z</time>
      </trkpt>
      <trkpt lat="45.94273" lon="6.5014">
        <ele>1102.8000488281</ele>
        <time>2013-11-30T13:56:51.000Z</time>
      </trkpt>
      <trkpt lat="45.94282" lon="6.50151">
        <ele>1102.5999755859</ele>
        <time>2013-11-30T13:56:54.000Z</time>
      </trkpt>
      <trkpt lat="45.94292" lon="6.50174">
        <ele>1102.4000244141</ele>
        <time>2013-11-30T13:56:59.000Z</time>
      </trkpt>
      <trkpt lat="45.94297" lon="6.50186">
        <ele>1102.8000488281</ele>
        <time>2013-11-30T13:57:03.000Z</time>
      </trkpt>
      <trkpt lat="45.94301" lon="6.502">
        <ele>1103.1999511719</ele>
        <time>2013-11-30T13:57:07.000Z</time>
      </trkpt>
      <trkpt lat="45.94304" lon="6.50211">
        <ele>1103.4000244141</ele>
        <time>2013-11-30T13:57:09.000Z</time>
      </trkpt>
      <trkpt lat="45.94305" lon="6.50216">
        <ele>1103.4000244141</ele>
        <time>2013-11-30T13:57:11.000Z</time>
      </trkpt>
      <trkpt lat="45.94311" lon="6.50236">
        <ele>1103.5999755859</ele>
        <time>2013-11-30T13:57:15.000Z</time>
      </trkpt>
      <trkpt lat="45.94313" lon="6.5024">
        <ele>1103.4000244141</ele>
        <time>2013-11-30T13:57:17.000Z</time>
      </trkpt>
      <trkpt lat="45.94318" lon="6.50252">
        <ele>1103</ele>
        <time>2013-11-30T13:57:19.000Z</time>
      </trkpt>
      <trkpt lat="45.94323" lon="6.50265">
        <ele>1102.8000488281</ele>
        <time>2013-11-30T13:57:23.000Z</time>
      </trkpt>
      <trkpt lat="45.94327" lon="6.5028">
        <ele>1102.4000244141</ele>
        <time>2013-11-30T13:57:27.000Z</time>
      </trkpt>
      <trkpt lat="45.9433" lon="6.50289">
        <ele>1102</ele>
        <time>2013-11-30T13:57:29.000Z</time>
      </trkpt>
      <trkpt lat="45.94332" lon="6.50293">
        <ele>1102</ele>
        <time>2013-11-30T13:57:31.000Z</time>
      </trkpt>
      <trkpt lat="45.94334" lon="6.50296">
        <ele>1101.5999755859</ele>
        <time>2013-11-30T13:57:32.000Z</time>
      </trkpt>
      <trkpt lat="45.94337" lon="6.50306">
        <ele>1102.1999511719</ele>
        <time>2013-11-30T13:57:34.000Z</time>
      </trkpt>
      <trkpt lat="45.94341" lon="6.5032">
        <ele>1102.8000488281</ele>
        <time>2013-11-30T13:57:39.000Z</time>
      </trkpt>
      <trkpt lat="45.94344" lon="6.5033">
        <ele>1103.1999511719</ele>
        <time>2013-11-30T13:57:42.000Z</time>
      </trkpt>
      <trkpt lat="45.94344" lon="6.50334">
        <ele>1103.1999511719</ele>
        <time>2013-11-30T13:57:43.000Z</time>
      </trkpt>
      <trkpt lat="45.94345" lon="6.50337">
        <ele>1103.4000244141</ele>
        <time>2013-11-30T13:57:44.000Z</time>
      </trkpt>
      <trkpt lat="45.94352" lon="6.50353">
        <ele>1104.4000244141</ele>
        <time>2013-11-30T13:57:49.000Z</time>
      </trkpt>
      <trkpt lat="45.94354" lon="6.50357">
        <ele>1104.8000488281</ele>
        <time>2013-11-30T13:57:51.000Z</time>
      </trkpt>
      <trkpt lat="45.94359" lon="6.50366">
        <ele>1105.1999511719</ele>
        <time>2013-11-30T13:57:53.000Z</time>
      </trkpt>
      <trkpt lat="45.94369" lon="6.50385">
        <ele>1105.8000488281</ele>
        <time>2013-11-30T13:57:59.000Z</time>
      </trkpt>
      <trkpt lat="45.94375" lon="6.50397">
        <ele>1106</ele>
        <time>2013-11-30T13:58:03.000Z</time>
      </trkpt>
      <trkpt lat="45.94377" lon="6.504">
        <ele>1106</ele>
        <time>2013-11-30T13:58:04.000Z</time>
      </trkpt>
      <trkpt lat="45.94383" lon="6.50414">
        <ele>1106</ele>
        <time>2013-11-30T13:58:08.000Z</time>
      </trkpt>
      <trkpt lat="45.94385" lon="6.50418">
        <ele>1106</ele>
        <time>2013-11-30T13:58:09.000Z</time>
      </trkpt>
      <trkpt lat="45.94388" lon="6.50431">
        <ele>1106.5999755859</ele>
        <time>2013-11-30T13:58:13.000Z</time>
      </trkpt>
      <trkpt lat="45.94389" lon="6.50434">
        <ele>1106.5999755859</ele>
        <time>2013-11-30T13:58:14.000Z</time>
      </trkpt>
      <trkpt lat="45.9439" lon="6.50439">
        <ele>1106.8000488281</ele>
        <time>2013-11-30T13:58:16.000Z</time>
      </trkpt>
      <trkpt lat="45.94393" lon="6.50449">
        <ele>1107.1999511719</ele>
        <time>2013-11-30T13:58:19.000Z</time>
      </trkpt>
      <trkpt lat="45.94395" lon="6.5046">
        <ele>1107.5999755859</ele>
        <time>2013-11-30T13:58:23.000Z</time>
      </trkpt>
      <trkpt lat="45.94399" lon="6.50475">
        <ele>1107.8000488281</ele>
        <time>2013-11-30T13:58:28.000Z</time>
      </trkpt>
      <trkpt lat="45.94405" lon="6.5049">
        <ele>1107.5999755859</ele>
        <time>2013-11-30T13:58:33.000Z</time>
      </trkpt>
      <trkpt lat="45.94408" lon="6.50496">
        <ele>1107.1999511719</ele>
        <time>2013-11-30T13:58:34.000Z</time>
      </trkpt>
      <trkpt lat="45.94413" lon="6.50509">
        <ele>1107.4000244141</ele>
        <time>2013-11-30T13:58:39.000Z</time>
      </trkpt>
      <trkpt lat="45.94418" lon="6.50519">
        <ele>1107.8000488281</ele>
        <time>2013-11-30T13:58:43.000Z</time>
      </trkpt>
      <trkpt lat="45.94423" lon="6.50529">
        <ele>1109.1999511719</ele>
        <time>2013-11-30T13:58:47.000Z</time>
      </trkpt>
      <trkpt lat="45.94427" lon="6.50536">
        <ele>1110.1999511719</ele>
        <time>2013-11-30T13:58:49.000Z</time>
      </trkpt>
      <trkpt lat="45.94432" lon="6.50545">
        <ele>1111.1999511719</ele>
        <time>2013-11-30T13:58:53.000Z</time>
      </trkpt>
      <trkpt lat="45.94438" lon="6.50558">
        <ele>1112.8000488281</ele>
        <time>2013-11-30T13:58:58.000Z</time>
      </trkpt>
      <trkpt lat="45.94439" lon="6.50561">
        <ele>1113.1999511719</ele>
        <time>2013-11-30T13:58:59.000Z</time>
      </trkpt>
      <trkpt lat="45.94445" lon="6.5057">
        <ele>1114.1999511719</ele>
        <time>2013-11-30T13:59:03.000Z</time>
      </trkpt>
      <trkpt lat="45.94453" lon="6.50575">
        <ele>1115.1999511719</ele>
        <time>2013-11-30T13:59:07.000Z</time>
      </trkpt>
      <trkpt lat="45.94455" lon="6.50574">
        <ele>1115.1999511719</ele>
        <time>2013-11-30T13:59:08.000Z</time>
      </trkpt>
      <trkpt lat="45.94463" lon="6.50563">
        <ele>1115.4000244141</ele>
        <time>2013-11-30T13:59:12.000Z</time>
      </trkpt>
      <trkpt lat="45.94463" lon="6.50555">
        <ele>1114.8000488281</ele>
        <time>2013-11-30T13:59:14.000Z</time>
      </trkpt>
      <trkpt lat="45.94458" lon="6.50538">
        <ele>1113.5999755859</ele>
        <time>2013-11-30T13:59:17.000Z</time>
      </trkpt>
      <trkpt lat="45.94443" lon="6.50508">
        <ele>1110</ele>
        <time>2013-11-30T13:59:24.000Z</time>
      </trkpt>
      <trkpt lat="45.94439" lon="6.50486">
        <ele>1108.8000488281</ele>
        <time>2013-11-30T13:59:29.000Z</time>
      </trkpt>
      <trkpt lat="45.94438" lon="6.50481">
        <ele>1108.5999755859</ele>
        <time>2013-11-30T13:59:31.000Z</time>
      </trkpt>
      <trkpt lat="45.94435" lon="6.50455">
        <ele>1107.8000488281</ele>
        <time>2013-11-30T13:59:36.000Z</time>
      </trkpt>
      <trkpt lat="45.94431" lon="6.50441">
        <ele>1107</ele>
        <time>2013-11-30T13:59:39.000Z</time>
      </trkpt>
      <trkpt lat="45.9443" lon="6.50434">
        <ele>1106.5999755859</ele>
        <time>2013-11-30T13:59:41.000Z</time>
      </trkpt>
      <trkpt lat="45.94423" lon="6.50419">
        <ele>1105.1999511719</ele>
        <time>2013-11-30T13:59:45.000Z</time>
      </trkpt>
      <trkpt lat="45.94416" lon="6.504">
        <ele>1104.1999511719</ele>
        <time>2013-11-30T13:59:49.000Z</time>
      </trkpt>
      <trkpt lat="45.94406" lon="6.50383">
        <ele>1104.5999755859</ele>
        <time>2013-11-30T13:59:53.000Z</time>
      </trkpt>
      <trkpt lat="45.94393" lon="6.50372">
        <ele>1104.8000488281</ele>
        <time>2013-11-30T13:59:57.000Z</time>
      </trkpt>
      <trkpt lat="45.94383" lon="6.50358">
        <ele>1104.8000488281</ele>
        <time>2013-11-30T14:00:01.000Z</time>
      </trkpt>
      <trkpt lat="45.94376" lon="6.50339">
        <ele>1104.1999511719</ele>
        <time>2013-11-30T14:00:05.000Z</time>
      </trkpt>
      <trkpt lat="45.94373" lon="6.50336">
        <ele>1104</ele>
        <time>2013-11-30T14:00:06.000Z</time>
      </trkpt>
      <trkpt lat="45.94366" lon="6.50317">
        <ele>1103.8000488281</ele>
        <time>2013-11-30T14:00:09.000Z</time>
      </trkpt>
      <trkpt lat="45.94365" lon="6.50312">
        <ele>1103.8000488281</ele>
        <time>2013-11-30T14:00:11.000Z</time>
      </trkpt>
      <trkpt lat="45.94367" lon="6.50291">
        <ele>1104</ele>
        <time>2013-11-30T14:00:14.000Z</time>
      </trkpt>
      <trkpt lat="45.9437" lon="6.50278">
        <ele>1104.1999511719</ele>
        <time>2013-11-30T14:00:18.000Z</time>
      </trkpt>
      <trkpt lat="45.94368" lon="6.50262">
        <ele>1104.1999511719</ele>
        <time>2013-11-30T14:00:21.000Z</time>
      </trkpt>
      <trkpt lat="45.94366" lon="6.50241">
        <ele>1103.8000488281</ele>
        <time>2013-11-30T14:00:27.000Z</time>
      </trkpt>
      <trkpt lat="45.9436" lon="6.50225">
        <ele>1103</ele>
        <time>2013-11-30T14:00:32.000Z</time>
      </trkpt>
      <trkpt lat="45.94353" lon="6.50207">
        <ele>1101.8000488281</ele>
        <time>2013-11-30T14:00:37.000Z</time>
      </trkpt>
      <trkpt lat="45.94347" lon="6.50188">
        <ele>1100.5999755859</ele>
        <time>2013-11-30T14:00:41.000Z</time>
      </trkpt>
      <trkpt lat="45.94344" lon="6.50179">
        <ele>1100</ele>
        <time>2013-11-30T14:00:44.000Z</time>
      </trkpt>
      <trkpt lat="45.9434" lon="6.50164">
        <ele>1099.1999511719</ele>
        <time>2013-11-30T14:00:49.000Z</time>
      </trkpt>
      <trkpt lat="45.94331" lon="6.50143">
        <ele>1099.1999511719</ele>
        <time>2013-11-30T14:00:54.000Z</time>
      </trkpt>
      <trkpt lat="45.94327" lon="6.50135">
        <ele>1099.8000488281</ele>
        <time>2013-11-30T14:00:57.000Z</time>
      </trkpt>
      <trkpt lat="45.9432" lon="6.5012">
        <ele>1100.5999755859</ele>
        <time>2013-11-30T14:01:03.000Z</time>
      </trkpt>
      <trkpt lat="45.94312" lon="6.50108">
        <ele>1101</ele>
        <time>2013-11-30T14:01:08.000Z</time>
      </trkpt>
      <trkpt lat="45.94306" lon="6.50098">
        <ele>1101.1999511719</ele>
        <time>2013-11-30T14:01:12.000Z</time>
      </trkpt>
      <trkpt lat="45.94297" lon="6.50085">
        <ele>1101.1999511719</ele>
        <time>2013-11-30T14:01:17.000Z</time>
      </trkpt>
      <trkpt lat="45.94295" lon="6.50083">
        <ele>1101</ele>
        <time>2013-11-30T14:01:18.000Z</time>
      </trkpt>
      <trkpt lat="45.94291" lon="6.50081">
        <ele>1101.1999511719</ele>
        <time>2013-11-30T14:01:19.000Z</time>
      </trkpt>
      <trkpt lat="45.94279" lon="6.50083">
        <ele>1100.8000488281</ele>
        <time>2013-11-30T14:01:24.000Z</time>
      </trkpt>
      <trkpt lat="45.94265" lon="6.50086">
        <ele>1100.4000244141</ele>
        <time>2013-11-30T14:01:27.000Z</time>
      </trkpt>
      <trkpt lat="45.94253" lon="6.50083">
        <ele>1100.1999511719</ele>
        <time>2013-11-30T14:01:31.000Z</time>
      </trkpt>
      <trkpt lat="45.94236" lon="6.50074">
        <ele>1102.8000488281</ele>
        <time>2013-11-30T14:01:36.000Z</time>
      </trkpt>
      <trkpt lat="45.94233" lon="6.50073">
        <ele>1103.5999755859</ele>
        <time>2013-11-30T14:01:37.000Z</time>
      </trkpt>
      <trkpt lat="45.9422" lon="6.50063">
        <ele>1105.8000488281</ele>
        <time>2013-11-30T14:01:41.000Z</time>
      </trkpt>
      <trkpt lat="45.94216" lon="6.50059">
        <ele>1106.4000244141</ele>
        <time>2013-11-30T14:01:43.000Z</time>
      </trkpt>
      <trkpt lat="45.94207" lon="6.5005">
        <ele>1107.4000244141</ele>
        <time>2013-11-30T14:01:46.000Z</time>
      </trkpt>
      <trkpt lat="45.94205" lon="6.50047">
        <ele>1107.5999755859</ele>
        <time>2013-11-30T14:01:47.000Z</time>
      </trkpt>
      <trkpt lat="45.94192" lon="6.50029">
        <ele>1108.4000244141</ele>
        <time>2013-11-30T14:01:55.000Z</time>
      </trkpt>
      <trkpt lat="45.94185" lon="6.50016">
        <ele>1108</ele>
        <time>2013-11-30T14:01:59.000Z</time>
      </trkpt>
      <trkpt lat="45.94178" lon="6.50007">
        <ele>1108</ele>
        <time>2013-11-30T14:02:02.000Z</time>
      </trkpt>
      <trkpt lat="45.94167" lon="6.49986">
        <ele>1109</ele>
        <time>2013-11-30T14:02:08.000Z</time>
      </trkpt>
      <trkpt lat="45.94158" lon="6.49961">
        <ele>1112.1999511719</ele>
        <time>2013-11-30T14:02:12.000Z</time>
      </trkpt>
      <trkpt lat="45.94152" lon="6.49948">
        <ele>1113.5999755859</ele>
        <time>2013-11-30T14:02:14.000Z</time>
      </trkpt>
      <trkpt lat="45.94141" lon="6.49926">
        <ele>1115</ele>
        <time>2013-11-30T14:02:18.000Z</time>
      </trkpt>
      <trkpt lat="45.94139" lon="6.49923">
        <ele>1115</ele>
        <time>2013-11-30T14:02:19.000Z</time>
      </trkpt>
      <trkpt lat="45.94132" lon="6.49915">
        <ele>1115.1999511719</ele>
        <time>2013-11-30T14:02:21.000Z</time>
      </trkpt>
      <trkpt lat="45.94124" lon="6.49899">
        <ele>1114.5999755859</ele>
        <time>2013-11-30T14:02:24.000Z</time>
      </trkpt>
      <trkpt lat="45.94116" lon="6.49873">
        <ele>1112.8000488281</ele>
        <time>2013-11-30T14:02:30.000Z</time>
      </trkpt>
      <trkpt lat="45.94115" lon="6.4987">
        <ele>1112.5999755859</ele>
        <time>2013-11-30T14:02:31.000Z</time>
      </trkpt>
      <trkpt lat="45.94114" lon="6.49854">
        <ele>1111.4000244141</ele>
        <time>2013-11-30T14:02:35.000Z</time>
      </trkpt>
      <trkpt lat="45.94106" lon="6.49826">
        <ele>1108.8000488281</ele>
        <time>2013-11-30T14:02:41.000Z</time>
      </trkpt>
      <trkpt lat="45.94104" lon="6.49817">
        <ele>1108.1999511719</ele>
        <time>2013-11-30T14:02:44.000Z</time>
      </trkpt>
      <trkpt lat="45.94101" lon="6.49799">
        <ele>1107</ele>
        <time>2013-11-30T14:02:48.000Z</time>
      </trkpt>
      <trkpt lat="45.94095" lon="6.49786">
        <ele>1105.8000488281</ele>
        <time>2013-11-30T14:02:50.000Z</time>
      </trkpt>
      <trkpt lat="45.94081" lon="6.4976">
        <ele>1103.4000244141</ele>
        <time>2013-11-30T14:02:55.000Z</time>
      </trkpt>
      <trkpt lat="45.94077" lon="6.49756">
        <ele>1103</ele>
        <time>2013-11-30T14:02:56.000Z</time>
      </trkpt>
      <trkpt lat="45.9406" lon="6.49741">
        <ele>1101</ele>
        <time>2013-11-30T14:03:00.000Z</time>
      </trkpt>
      <trkpt lat="45.94043" lon="6.4973">
        <ele>1098.8000488281</ele>
        <time>2013-11-30T14:03:04.000Z</time>
      </trkpt>
      <trkpt lat="45.94039" lon="6.49728">
        <ele>1098.4000244141</ele>
        <time>2013-11-30T14:03:05.000Z</time>
      </trkpt>
      <trkpt lat="45.94031" lon="6.49721">
        <ele>1097.4000244141</ele>
        <time>2013-11-30T14:03:07.000Z</time>
      </trkpt>
      <trkpt lat="45.94022" lon="6.49714">
        <ele>1096.1999511719</ele>
        <time>2013-11-30T14:03:09.000Z</time>
      </trkpt>
      <trkpt lat="45.94011" lon="6.49706">
        <ele>1094.8000488281</ele>
        <time>2013-11-30T14:03:13.000Z</time>
      </trkpt>
      <trkpt lat="45.93994" lon="6.49699">
        <ele>1094.8000488281</ele>
        <time>2013-11-30T14:03:17.000Z</time>
      </trkpt>
      <trkpt lat="45.93975" lon="6.49678">
        <ele>1095</ele>
        <time>2013-11-30T14:03:22.000Z</time>
      </trkpt>
      <trkpt lat="45.9397" lon="6.49673">
        <ele>1094.5999755859</ele>
        <time>2013-11-30T14:03:23.000Z</time>
      </trkpt>
      <trkpt lat="45.93968" lon="6.49669">
        <ele>1094.1999511719</ele>
        <time>2013-11-30T14:03:24.000Z</time>
      </trkpt>
      <trkpt lat="45.93958" lon="6.4966">
        <ele>1094.4000244141</ele>
        <time>2013-11-30T14:03:27.000Z</time>
      </trkpt>
      <trkpt lat="45.93946" lon="6.49643">
        <ele>1094</ele>
        <time>2013-11-30T14:03:31.000Z</time>
      </trkpt>
      <trkpt lat="45.9394" lon="6.49635">
        <ele>1093.8000488281</ele>
        <time>2013-11-30T14:03:33.000Z</time>
      </trkpt>
      <trkpt lat="45.93926" lon="6.49619">
        <ele>1092.8000488281</ele>
        <time>2013-11-30T14:03:37.000Z</time>
      </trkpt>
      <trkpt lat="45.93914" lon="6.49595">
        <ele>1090.1999511719</ele>
        <time>2013-11-30T14:03:42.000Z</time>
      </trkpt>
      <trkpt lat="45.93907" lon="6.49568">
        <ele>1089.8000488281</ele>
        <time>2013-11-30T14:03:47.000Z</time>
      </trkpt>
      <trkpt lat="45.93902" lon="6.49544">
        <ele>1089.4000244141</ele>
        <time>2013-11-30T14:03:52.000Z</time>
      </trkpt>
      <trkpt lat="45.939" lon="6.49535">
        <ele>1089</ele>
        <time>2013-11-30T14:03:54.000Z</time>
      </trkpt>
      <trkpt lat="45.93893" lon="6.4952">
        <ele>1088.5999755859</ele>
        <time>2013-11-30T14:03:58.000Z</time>
      </trkpt>
      <trkpt lat="45.93884" lon="6.49506">
        <ele>1087.5999755859</ele>
        <time>2013-11-30T14:04:01.000Z</time>
      </trkpt>
      <trkpt lat="45.93873" lon="6.4949">
        <ele>1086.5999755859</ele>
        <time>2013-11-30T14:04:05.000Z</time>
      </trkpt>
      <trkpt lat="45.93864" lon="6.49471">
        <ele>1085.1999511719</ele>
        <time>2013-11-30T14:04:09.000Z</time>
      </trkpt>
      <trkpt lat="45.93854" lon="6.49455">
        <ele>1083.5999755859</ele>
        <time>2013-11-30T14:04:13.000Z</time>
      </trkpt>
      <trkpt lat="45.93841" lon="6.49438">
        <ele>1081.1999511719</ele>
        <time>2013-11-30T14:04:18.000Z</time>
      </trkpt>
      <trkpt lat="45.93829" lon="6.49423">
        <ele>1079.5999755859</ele>
        <time>2013-11-30T14:04:23.000Z</time>
      </trkpt>
      <trkpt lat="45.93819" lon="6.49404">
        <ele>1080.4000244141</ele>
        <time>2013-11-30T14:04:27.000Z</time>
      </trkpt>
      <trkpt lat="45.93809" lon="6.49384">
        <ele>1081.1999511719</ele>
        <time>2013-11-30T14:04:31.000Z</time>
      </trkpt>
      <trkpt lat="45.93806" lon="6.4938">
        <ele>1081.1999511719</ele>
        <time>2013-11-30T14:04:32.000Z</time>
      </trkpt>
      <trkpt lat="45.93793" lon="6.4936">
        <ele>1081.1999511719</ele>
        <time>2013-11-30T14:04:37.000Z</time>
      </trkpt>
      <trkpt lat="45.9379" lon="6.49356">
        <ele>1081</ele>
        <time>2013-11-30T14:04:38.000Z</time>
      </trkpt>
      <trkpt lat="45.93781" lon="6.49338">
        <ele>1079.8000488281</ele>
        <time>2013-11-30T14:04:41.000Z</time>
      </trkpt>
      <trkpt lat="45.93773" lon="6.49321">
        <ele>1079.4000244141</ele>
        <time>2013-11-30T14:04:46.000Z</time>
      </trkpt>
      <trkpt lat="45.93768" lon="6.49312">
        <ele>1079.1999511719</ele>
        <time>2013-11-30T14:04:48.000Z</time>
      </trkpt>
      <trkpt lat="45.93764" lon="6.49309">
        <ele>1079.1999511719</ele>
        <time>2013-11-30T14:04:49.000Z</time>
      </trkpt>
      <trkpt lat="45.93754" lon="6.49294">
        <ele>1078.5999755859</ele>
        <time>2013-11-30T14:04:54.000Z</time>
      </trkpt>
      <trkpt lat="45.93746" lon="6.49273">
        <ele>1078</ele>
        <time>2013-11-30T14:04:58.000Z</time>
      </trkpt>
      <trkpt lat="45.93744" lon="6.49258">
        <ele>1077.4000244141</ele>
        <time>2013-11-30T14:05:00.000Z</time>
      </trkpt>
      <trkpt lat="45.93736" lon="6.49242">
        <ele>1076</ele>
        <time>2013-11-30T14:05:03.000Z</time>
      </trkpt>
      <trkpt lat="45.93724" lon="6.49218">
        <ele>1073.4000244141</ele>
        <time>2013-11-30T14:05:07.000Z</time>
      </trkpt>
      <trkpt lat="45.93714" lon="6.49194">
        <ele>1070.8000488281</ele>
        <time>2013-11-30T14:05:11.000Z</time>
      </trkpt>
      <trkpt lat="45.93705" lon="6.49179">
        <ele>1069.1999511719</ele>
        <time>2013-11-30T14:05:14.000Z</time>
      </trkpt>
      <trkpt lat="45.93702" lon="6.49174">
        <ele>1068.8000488281</ele>
        <time>2013-11-30T14:05:15.000Z</time>
      </trkpt>
      <trkpt lat="45.93697" lon="6.49163">
        <ele>1068</ele>
        <time>2013-11-30T14:05:17.000Z</time>
      </trkpt>
      <trkpt lat="45.93691" lon="6.49152">
        <ele>1067.8000488281</ele>
        <time>2013-11-30T14:05:19.000Z</time>
      </trkpt>
      <trkpt lat="45.93681" lon="6.49139">
        <ele>1067.1999511719</ele>
        <time>2013-11-30T14:05:22.000Z</time>
      </trkpt>
      <trkpt lat="45.93668" lon="6.49123">
        <ele>1066.4000244141</ele>
        <time>2013-11-30T14:05:26.000Z</time>
      </trkpt>
      <trkpt lat="45.93656" lon="6.49104">
        <ele>1066.1999511719</ele>
        <time>2013-11-30T14:05:30.000Z</time>
      </trkpt>
      <trkpt lat="45.93646" lon="6.49083">
        <ele>1065.4000244141</ele>
        <time>2013-11-30T14:05:34.000Z</time>
      </trkpt>
      <trkpt lat="45.93643" lon="6.49078">
        <ele>1065.4000244141</ele>
        <time>2013-11-30T14:05:35.000Z</time>
      </trkpt>
      <trkpt lat="45.93639" lon="6.49067">
        <ele>1065</ele>
        <time>2013-11-30T14:05:37.000Z</time>
      </trkpt>
      <trkpt lat="45.93635" lon="6.49053">
        <ele>1064.4000244141</ele>
        <time>2013-11-30T14:05:39.000Z</time>
      </trkpt>
      <trkpt lat="45.93629" lon="6.49036">
        <ele>1063.5999755859</ele>
        <time>2013-11-30T14:05:43.000Z</time>
      </trkpt>
      <trkpt lat="45.93626" lon="6.49032">
        <ele>1063.5999755859</ele>
        <time>2013-11-30T14:05:44.000Z</time>
      </trkpt>
      <trkpt lat="45.93609" lon="6.49009">
        <ele>1062.4000244141</ele>
        <time>2013-11-30T14:05:49.000Z</time>
      </trkpt>
      <trkpt lat="45.93599" lon="6.48994">
        <ele>1062.1999511719</ele>
        <time>2013-11-30T14:05:53.000Z</time>
      </trkpt>
      <trkpt lat="45.9359" lon="6.48975">
        <ele>1062.5999755859</ele>
        <time>2013-11-30T14:05:57.000Z</time>
      </trkpt>
      <trkpt lat="45.93589" lon="6.48969">
        <ele>1062.8000488281</ele>
        <time>2013-11-30T14:05:58.000Z</time>
      </trkpt>
      <trkpt lat="45.93589" lon="6.48962">
        <ele>1063</ele>
        <time>2013-11-30T14:05:59.000Z</time>
      </trkpt>
      <trkpt lat="45.93586" lon="6.48938">
        <ele>1063.4000244141</ele>
        <time>2013-11-30T14:06:03.000Z</time>
      </trkpt>
      <trkpt lat="45.93585" lon="6.48929">
        <ele>1063.5999755859</ele>
        <time>2013-11-30T14:06:05.000Z</time>
      </trkpt>
      <trkpt lat="45.9358" lon="6.48911">
        <ele>1063.5999755859</ele>
        <time>2013-11-30T14:06:09.000Z</time>
      </trkpt>
      <trkpt lat="45.93569" lon="6.48902">
        <ele>1062.8000488281</ele>
        <time>2013-11-30T14:06:12.000Z</time>
      </trkpt>
      <trkpt lat="45.93565" lon="6.48898">
        <ele>1062.5999755859</ele>
        <time>2013-11-30T14:06:13.000Z</time>
      </trkpt>
      <trkpt lat="45.93549" lon="6.48886">
        <ele>1061.4000244141</ele>
        <time>2013-11-30T14:06:17.000Z</time>
      </trkpt>
      <trkpt lat="45.93545" lon="6.48883">
        <ele>1061.1999511719</ele>
        <time>2013-11-30T14:06:18.000Z</time>
      </trkpt>
      <trkpt lat="45.93535" lon="6.48872">
        <ele>1060.4000244141</ele>
        <time>2013-11-30T14:06:21.000Z</time>
      </trkpt>
      <trkpt lat="45.93527" lon="6.48859">
        <ele>1059.5999755859</ele>
        <time>2013-11-30T14:06:24.000Z</time>
      </trkpt>
      <trkpt lat="45.93519" lon="6.48842">
        <ele>1058.8000488281</ele>
        <time>2013-11-30T14:06:27.000Z</time>
      </trkpt>
      <trkpt lat="45.93511" lon="6.48826">
        <ele>1058.1999511719</ele>
        <time>2013-11-30T14:06:30.000Z</time>
      </trkpt>
      <trkpt lat="45.93502" lon="6.48795">
        <ele>1057.1999511719</ele>
        <time>2013-11-30T14:06:35.000Z</time>
      </trkpt>
      <trkpt lat="45.93498" lon="6.48769">
        <ele>1056.4000244141</ele>
        <time>2013-11-30T14:06:39.000Z</time>
      </trkpt>
      <trkpt lat="45.93495" lon="6.48751">
        <ele>1056</ele>
        <time>2013-11-30T14:06:42.000Z</time>
      </trkpt>
      <trkpt lat="45.93496" lon="6.4874">
        <ele>1055.8000488281</ele>
        <time>2013-11-30T14:06:43.000Z</time>
      </trkpt>
      <trkpt lat="45.93497" lon="6.48718">
        <ele>1055.5999755859</ele>
        <time>2013-11-30T14:06:47.000Z</time>
      </trkpt>
      <trkpt lat="45.935" lon="6.48691">
        <ele>1055.1999511719</ele>
        <time>2013-11-30T14:06:51.000Z</time>
      </trkpt>
      <trkpt lat="45.93501" lon="6.48682">
        <ele>1055.1999511719</ele>
        <time>2013-11-30T14:06:53.000Z</time>
      </trkpt>
      <trkpt lat="45.93504" lon="6.48659">
        <ele>1055.1999511719</ele>
        <time>2013-11-30T14:06:57.000Z</time>
      </trkpt>
      <trkpt lat="45.93507" lon="6.48636">
        <ele>1055.1999511719</ele>
        <time>2013-11-30T14:07:01.000Z</time>
      </trkpt>
      <trkpt lat="45.93507" lon="6.48616">
        <ele>1055.1999511719</ele>
        <time>2013-11-30T14:07:05.000Z</time>
      </trkpt>
      <trkpt lat="45.93505" lon="6.48592">
        <ele>1054.8000488281</ele>
        <time>2013-11-30T14:07:09.000Z</time>
      </trkpt>
      <trkpt lat="45.93504" lon="6.48583">
        <ele>1054.5999755859</ele>
        <time>2013-11-30T14:07:12.000Z</time>
      </trkpt>
      <trkpt lat="45.93499" lon="6.48572">
        <ele>1053.5999755859</ele>
        <time>2013-11-30T14:07:16.000Z</time>
      </trkpt>
      <trkpt lat="45.93496" lon="6.48559">
        <ele>1053.1999511719</ele>
        <time>2013-11-30T14:07:21.000Z</time>
      </trkpt>
      <trkpt lat="45.93498" lon="6.48554">
        <ele>1053.1999511719</ele>
        <time>2013-11-30T14:07:26.000Z</time>
      </trkpt>
      <trkpt lat="45.93498" lon="6.48555">
        <ele>1053.1999511719</ele>
        <time>2013-11-30T14:07:27.000Z</time>
      </trkpt>
      <trkpt lat="45.93492" lon="6.48546">
        <ele>1052.5999755859</ele>
        <time>2013-11-30T14:08:14.000Z</time>
      </trkpt>
      <trkpt lat="45.93489" lon="6.48535">
        <ele>1052</ele>
        <time>2013-11-30T14:08:19.000Z</time>
      </trkpt>
      <trkpt lat="45.93492" lon="6.48516">
        <ele>1051.5999755859</ele>
        <time>2013-11-30T14:08:24.000Z</time>
      </trkpt>
      <trkpt lat="45.93492" lon="6.48512">
        <ele>1051.5999755859</ele>
        <time>2013-11-30T14:08:25.000Z</time>
      </trkpt>
      <trkpt lat="45.93492" lon="6.48505">
        <ele>1051.4000244141</ele>
        <time>2013-11-30T14:08:27.000Z</time>
      </trkpt>
      <trkpt lat="45.93491" lon="6.48482">
        <ele>1050.8000488281</ele>
        <time>2013-11-30T14:08:32.000Z</time>
      </trkpt>
      <trkpt lat="45.9349" lon="6.48465">
        <ele>1050.4000244141</ele>
        <time>2013-11-30T14:08:36.000Z</time>
      </trkpt>
      <trkpt lat="45.93489" lon="6.48462">
        <ele>1050.1999511719</ele>
        <time>2013-11-30T14:08:37.000Z</time>
      </trkpt>
      <trkpt lat="45.93489" lon="6.48441">
        <ele>1049.8000488281</ele>
        <time>2013-11-30T14:08:41.000Z</time>
      </trkpt>
      <trkpt lat="45.93488" lon="6.48415">
        <ele>1049.4000244141</ele>
        <time>2013-11-30T14:08:46.000Z</time>
      </trkpt>
      <trkpt lat="45.93487" lon="6.48396">
        <ele>1050</ele>
        <time>2013-11-30T14:08:49.000Z</time>
      </trkpt>
      <trkpt lat="45.93487" lon="6.48366">
        <ele>1051.1999511719</ele>
        <time>2013-11-30T14:08:55.000Z</time>
      </trkpt>
      <trkpt lat="45.93491" lon="6.48343">
        <ele>1052.1999511719</ele>
        <time>2013-11-30T14:09:01.000Z</time>
      </trkpt>
      <trkpt lat="45.93494" lon="6.48324">
        <ele>1053.4000244141</ele>
        <time>2013-11-30T14:09:06.000Z</time>
      </trkpt>
      <trkpt lat="45.93495" lon="6.48315">
        <ele>1054</ele>
        <time>2013-11-30T14:09:08.000Z</time>
      </trkpt>
      <trkpt lat="45.93489" lon="6.48295">
        <ele>1055</ele>
        <time>2013-11-30T14:09:13.000Z</time>
      </trkpt>
      <trkpt lat="45.93484" lon="6.48291">
        <ele>1055</ele>
        <time>2013-11-30T14:09:15.000Z</time>
      </trkpt>
      <trkpt lat="45.93471" lon="6.48278">
        <ele>1054.8000488281</ele>
        <time>2013-11-30T14:09:21.000Z</time>
      </trkpt>
      <trkpt lat="45.93467" lon="6.48264">
        <ele>1055.1999511719</ele>
        <time>2013-11-30T14:09:25.000Z</time>
      </trkpt>
      <trkpt lat="45.93464" lon="6.48257">
        <ele>1055.1999511719</ele>
        <time>2013-11-30T14:09:27.000Z</time>
      </trkpt>
      <trkpt lat="45.93461" lon="6.4824">
        <ele>1055.8000488281</ele>
        <time>2013-11-30T14:09:31.000Z</time>
      </trkpt>
      <trkpt lat="45.93458" lon="6.48221">
        <ele>1056.4000244141</ele>
        <time>2013-11-30T14:09:36.000Z</time>
      </trkpt>
      <trkpt lat="45.93455" lon="6.48208">
        <ele>1056.5999755859</ele>
        <time>2013-11-30T14:09:39.000Z</time>
      </trkpt>
      <trkpt lat="45.93454" lon="6.48203">
        <ele>1056.8000488281</ele>
        <time>2013-11-30T14:09:41.000Z</time>
      </trkpt>
      <trkpt lat="45.93442" lon="6.48195">
        <ele>1056</ele>
        <time>2013-11-30T14:09:46.000Z</time>
      </trkpt>
      <trkpt lat="45.93433" lon="6.48196">
        <ele>1055.1999511719</ele>
        <time>2013-11-30T14:09:48.000Z</time>
      </trkpt>
      <trkpt lat="45.9342" lon="6.48202">
        <ele>1053.5999755859</ele>
        <time>2013-11-30T14:09:52.000Z</time>
      </trkpt>
      <trkpt lat="45.93415" lon="6.48204">
        <ele>1053.1999511719</ele>
        <time>2013-11-30T14:09:53.000Z</time>
      </trkpt>
      <trkpt lat="45.93394" lon="6.48202">
        <ele>1052.1999511719</ele>
        <time>2013-11-30T14:09:58.000Z</time>
      </trkpt>
      <trkpt lat="45.93391" lon="6.48199">
        <ele>1052</ele>
        <time>2013-11-30T14:09:59.000Z</time>
      </trkpt>
      <trkpt lat="45.93387" lon="6.48197">
        <ele>1052</ele>
        <time>2013-11-30T14:10:00.000Z</time>
      </trkpt>
      <trkpt lat="45.9338" lon="6.48184">
        <ele>1052.1999511719</ele>
        <time>2013-11-30T14:10:04.000Z</time>
      </trkpt>
      <trkpt lat="45.93378" lon="6.4818">
        <ele>1052.4000244141</ele>
        <time>2013-11-30T14:10:05.000Z</time>
      </trkpt>
      <trkpt lat="45.93375" lon="6.48161">
        <ele>1053.1999511719</ele>
        <time>2013-11-30T14:10:10.000Z</time>
      </trkpt>
      <trkpt lat="45.93377" lon="6.48146">
        <ele>1053.4000244141</ele>
        <time>2013-11-30T14:10:13.000Z</time>
      </trkpt>
      <trkpt lat="45.93383" lon="6.48125">
        <ele>1054.1999511719</ele>
        <time>2013-11-30T14:10:18.000Z</time>
      </trkpt>
      <trkpt lat="45.93379" lon="6.48109">
        <ele>1054.4000244141</ele>
        <time>2013-11-30T14:10:21.000Z</time>
      </trkpt>
      <trkpt lat="45.93375" lon="6.48106">
        <ele>1054.1999511719</ele>
        <time>2013-11-30T14:10:23.000Z</time>
      </trkpt>
      <trkpt lat="45.93355" lon="6.48099">
        <ele>1052.5999755859</ele>
        <time>2013-11-30T14:10:28.000Z</time>
      </trkpt>
      <trkpt lat="45.93337" lon="6.48101">
        <ele>1051.4000244141</ele>
        <time>2013-11-30T14:10:32.000Z</time>
      </trkpt>
      <trkpt lat="45.93333" lon="6.481">
        <ele>1051</ele>
        <time>2013-11-30T14:10:33.000Z</time>
      </trkpt>
      <trkpt lat="45.93329" lon="6.48099">
        <ele>1051.4000244141</ele>
        <time>2013-11-30T14:10:34.000Z</time>
      </trkpt>
      <trkpt lat="45.93311" lon="6.48102">
        <ele>1053</ele>
        <time>2013-11-30T14:10:38.000Z</time>
      </trkpt>
      <trkpt lat="45.93298" lon="6.48112">
        <ele>1054</ele>
        <time>2013-11-30T14:10:41.000Z</time>
      </trkpt>
      <trkpt lat="45.93293" lon="6.4812">
        <ele>1054.4000244141</ele>
        <time>2013-11-30T14:10:43.000Z</time>
      </trkpt>
      <trkpt lat="45.93291" lon="6.48124">
        <ele>1054.5999755859</ele>
        <time>2013-11-30T14:10:44.000Z</time>
      </trkpt>
      <trkpt lat="45.93272" lon="6.48142">
        <ele>1055.8000488281</ele>
        <time>2013-11-30T14:10:50.000Z</time>
      </trkpt>
      <trkpt lat="45.93265" lon="6.48162">
        <ele>1056</ele>
        <time>2013-11-30T14:10:53.000Z</time>
      </trkpt>
      <trkpt lat="45.93262" lon="6.4817">
        <ele>1056</ele>
        <time>2013-11-30T14:10:55.000Z</time>
      </trkpt>
      <trkpt lat="45.93258" lon="6.48185">
        <ele>1056.1999511719</ele>
        <time>2013-11-30T14:11:00.000Z</time>
      </trkpt>
      <trkpt lat="45.93255" lon="6.48196">
        <ele>1056.1999511719</ele>
        <time>2013-11-30T14:11:03.000Z</time>
      </trkpt>
      <trkpt lat="45.93252" lon="6.48208">
        <ele>1056.4000244141</ele>
        <time>2013-11-30T14:11:07.000Z</time>
      </trkpt>
      <trkpt lat="45.93248" lon="6.48217">
        <ele>1057.4000244141</ele>
        <time>2013-11-30T14:11:10.000Z</time>
      </trkpt>
      <trkpt lat="45.93247" lon="6.48223">
        <ele>1058.1999511719</ele>
        <time>2013-11-30T14:11:11.000Z</time>
      </trkpt>
      <trkpt lat="45.93247" lon="6.48226">
        <ele>1058</ele>
        <time>2013-11-30T14:11:12.000Z</time>
      </trkpt>
      <trkpt lat="45.93247" lon="6.4824">
        <ele>1057.8000488281</ele>
        <time>2013-11-30T14:11:16.000Z</time>
      </trkpt>
      <trkpt lat="45.93249" lon="6.48244">
        <ele>1056.8000488281</ele>
        <time>2013-11-30T14:11:17.000Z</time>
      </trkpt>
      <trkpt lat="45.93256" lon="6.48258">
        <ele>1056</ele>
        <time>2013-11-30T14:11:22.000Z</time>
      </trkpt>
      <trkpt lat="45.93258" lon="6.48262">
        <ele>1056.1999511719</ele>
        <time>2013-11-30T14:11:23.000Z</time>
      </trkpt>
      <trkpt lat="45.93261" lon="6.48278">
        <ele>1057.5999755859</ele>
        <time>2013-11-30T14:11:28.000Z</time>
      </trkpt>
      <trkpt lat="45.93262" lon="6.48289">
        <ele>1058.4000244141</ele>
        <time>2013-11-30T14:11:31.000Z</time>
      </trkpt>
      <trkpt lat="45.93263" lon="6.48296">
        <ele>1059</ele>
        <time>2013-11-30T14:11:33.000Z</time>
      </trkpt>
      <trkpt lat="45.93266" lon="6.48312">
        <ele>1060.1999511719</ele>
        <time>2013-11-30T14:11:37.000Z</time>
      </trkpt>
      <trkpt lat="45.93268" lon="6.48325">
        <ele>1061.1999511719</ele>
        <time>2013-11-30T14:11:41.000Z</time>
      </trkpt>
      <trkpt lat="45.93269" lon="6.48332">
        <ele>1061.5999755859</ele>
        <time>2013-11-30T14:11:43.000Z</time>
      </trkpt>
      <trkpt lat="45.9327" lon="6.48335">
        <ele>1061.8000488281</ele>
        <time>2013-11-30T14:11:44.000Z</time>
      </trkpt>
      <trkpt lat="45.93275" lon="6.48343">
        <ele>1062.1999511719</ele>
        <time>2013-11-30T14:11:48.000Z</time>
      </trkpt>
      <trkpt lat="45.93275" lon="6.48345">
        <ele>1062.4000244141</ele>
        <time>2013-11-30T14:11:49.000Z</time>
      </trkpt>
      <trkpt lat="45.93276" lon="6.48352">
        <ele>1063</ele>
        <time>2013-11-30T14:11:51.000Z</time>
      </trkpt>
      <trkpt lat="45.93281" lon="6.48371">
        <ele>1064.4000244141</ele>
        <time>2013-11-30T14:11:56.000Z</time>
      </trkpt>
      <trkpt lat="45.93281" lon="6.48373">
        <ele>1064.5999755859</ele>
        <time>2013-11-30T14:11:57.000Z</time>
      </trkpt>
      <trkpt lat="45.93283" lon="6.48383">
        <ele>1065.4000244141</ele>
        <time>2013-11-30T14:12:00.000Z</time>
      </trkpt>
      <trkpt lat="45.93285" lon="6.48398">
        <ele>1066.4000244141</ele>
        <time>2013-11-30T14:12:04.000Z</time>
      </trkpt>
      <trkpt lat="45.9329" lon="6.48409">
        <ele>1066.1999511719</ele>
        <time>2013-11-30T14:12:08.000Z</time>
      </trkpt>
      <trkpt lat="45.93291" lon="6.48411">
        <ele>1066</ele>
        <time>2013-11-30T14:12:09.000Z</time>
      </trkpt>
      <trkpt lat="45.93292" lon="6.48415">
        <ele>1066.1999511719</ele>
        <time>2013-11-30T14:12:10.000Z</time>
      </trkpt>
      <trkpt lat="45.93304" lon="6.48428">
        <ele>1062.8000488281</ele>
        <time>2013-11-30T14:12:15.000Z</time>
      </trkpt>
      <trkpt lat="45.93309" lon="6.4843">
        <ele>1061.1999511719</ele>
        <time>2013-11-30T14:12:17.000Z</time>
      </trkpt>
      <trkpt lat="45.93314" lon="6.4843">
        <ele>1059.5999755859</ele>
        <time>2013-11-30T14:12:19.000Z</time>
      </trkpt>
      <trkpt lat="45.93316" lon="6.48418">
        <ele>1058.4000244141</ele>
        <time>2013-11-30T14:12:22.000Z</time>
      </trkpt>
      <trkpt lat="45.93317" lon="6.48412">
        <ele>1058.1999511719</ele>
        <time>2013-11-30T14:12:23.000Z</time>
      </trkpt>
      <trkpt lat="45.93315" lon="6.48409">
        <ele>1058.5999755859</ele>
        <time>2013-11-30T14:12:24.000Z</time>
      </trkpt>
      <trkpt lat="45.93308" lon="6.48387">
        <ele>1059.1999511719</ele>
        <time>2013-11-30T14:12:29.000Z</time>
      </trkpt>
      <trkpt lat="45.93306" lon="6.48369">
        <ele>1058.4000244141</ele>
        <time>2013-11-30T14:12:33.000Z</time>
      </trkpt>
      <trkpt lat="45.93307" lon="6.48365">
        <ele>1057.8000488281</ele>
        <time>2013-11-30T14:12:34.000Z</time>
      </trkpt>
      <trkpt lat="45.93311" lon="6.48349">
        <ele>1055.8000488281</ele>
        <time>2013-11-30T14:12:37.000Z</time>
      </trkpt>
      <trkpt lat="45.93317" lon="6.4834">
        <ele>1054</ele>
        <time>2013-11-30T14:12:40.000Z</time>
      </trkpt>
      <trkpt lat="45.93328" lon="6.48325">
        <ele>1051.4000244141</ele>
        <time>2013-11-30T14:12:44.000Z</time>
      </trkpt>
      <trkpt lat="45.93335" lon="6.48314">
        <ele>1049.8000488281</ele>
        <time>2013-11-30T14:12:48.000Z</time>
      </trkpt>
      <trkpt lat="45.93337" lon="6.48306">
        <ele>1049.4000244141</ele>
        <time>2013-11-30T14:12:50.000Z</time>
      </trkpt>
      <trkpt lat="45.93341" lon="6.48285">
        <ele>1048.4000244141</ele>
        <time>2013-11-30T14:12:55.000Z</time>
      </trkpt>
      <trkpt lat="45.9334" lon="6.48266">
        <ele>1047.1999511719</ele>
        <time>2013-11-30T14:13:00.000Z</time>
      </trkpt>
      <trkpt lat="45.93342" lon="6.48242">
        <ele>1047</ele>
        <time>2013-11-30T14:13:06.000Z</time>
      </trkpt>
      <trkpt lat="45.93352" lon="6.48228">
        <ele>1048.4000244141</ele>
        <time>2013-11-30T14:13:11.000Z</time>
      </trkpt>
      <trkpt lat="45.93363" lon="6.48223">
        <ele>1049.1999511719</ele>
        <time>2013-11-30T14:13:15.000Z</time>
      </trkpt>
      <trkpt lat="45.93365" lon="6.48223">
        <ele>1049.4000244141</ele>
        <time>2013-11-30T14:13:16.000Z</time>
      </trkpt>
      <trkpt lat="45.93371" lon="6.48225">
        <ele>1049.5999755859</ele>
        <time>2013-11-30T14:13:18.000Z</time>
      </trkpt>
      <trkpt lat="45.93381" lon="6.48234">
        <ele>1049.5999755859</ele>
        <time>2013-11-30T14:13:22.000Z</time>
      </trkpt>
      <trkpt lat="45.93383" lon="6.48236">
        <ele>1049.5999755859</ele>
        <time>2013-11-30T14:13:23.000Z</time>
      </trkpt>
      <trkpt lat="45.93384" lon="6.4824">
        <ele>1049.5999755859</ele>
        <time>2013-11-30T14:13:24.000Z</time>
      </trkpt>
      <trkpt lat="45.93391" lon="6.48248">
        <ele>1049.5999755859</ele>
        <time>2013-11-30T14:13:27.000Z</time>
      </trkpt>
      <trkpt lat="45.934" lon="6.48258">
        <ele>1050</ele>
        <time>2013-11-30T14:13:31.000Z</time>
      </trkpt>
      <trkpt lat="45.93408" lon="6.48268">
        <ele>1050.4000244141</ele>
        <time>2013-11-30T14:13:35.000Z</time>
      </trkpt>
      <trkpt lat="45.93418" lon="6.4828">
        <ele>1050.8000488281</ele>
        <time>2013-11-30T14:13:40.000Z</time>
      </trkpt>
      <trkpt lat="45.93426" lon="6.48289">
        <ele>1051.1999511719</ele>
        <time>2013-11-30T14:13:44.000Z</time>
      </trkpt>
      <trkpt lat="45.93433" lon="6.48294">
        <ele>1051.4000244141</ele>
        <time>2013-11-30T14:13:47.000Z</time>
      </trkpt>
      <trkpt lat="45.93447" lon="6.48303">
        <ele>1052</ele>
        <time>2013-11-30T14:13:53.000Z</time>
      </trkpt>
      <trkpt lat="45.93451" lon="6.48307">
        <ele>1052.1999511719</ele>
        <time>2013-11-30T14:13:55.000Z</time>
      </trkpt>
      <trkpt lat="45.93462" lon="6.48317">
        <ele>1052.4000244141</ele>
        <time>2013-11-30T14:14:00.000Z</time>
      </trkpt>
      <trkpt lat="45.93465" lon="6.48322">
        <ele>1052.1999511719</ele>
        <time>2013-11-30T14:14:02.000Z</time>
      </trkpt>
      <trkpt lat="45.93474" lon="6.48332">
        <ele>1052.1999511719</ele>
        <time>2013-11-30T14:14:06.000Z</time>
      </trkpt>
      <trkpt lat="45.9348" lon="6.48342">
        <ele>1052</ele>
        <time>2013-11-30T14:14:09.000Z</time>
      </trkpt>
      <trkpt lat="45.93489" lon="6.48363">
        <ele>1051.4000244141</ele>
        <time>2013-11-30T14:14:15.000Z</time>
      </trkpt>
      <trkpt lat="45.93492" lon="6.48379">
        <ele>1051</ele>
        <time>2013-11-30T14:14:19.000Z</time>
      </trkpt>
      <trkpt lat="45.93493" lon="6.48387">
        <ele>1050.8000488281</ele>
        <time>2013-11-30T14:14:21.000Z</time>
      </trkpt>
      <trkpt lat="45.93489" lon="6.48406">
        <ele>1049.8000488281</ele>
        <time>2013-11-30T14:14:26.000Z</time>
      </trkpt>
      <trkpt lat="45.93482" lon="6.48419">
        <ele>1049</ele>
        <time>2013-11-30T14:14:30.000Z</time>
      </trkpt>
      <trkpt lat="45.93472" lon="6.48427">
        <ele>1048.4000244141</ele>
        <time>2013-11-30T14:14:33.000Z</time>
      </trkpt>
      <trkpt lat="45.93468" lon="6.48429">
        <ele>1048.1999511719</ele>
        <time>2013-11-30T14:14:34.000Z</time>
      </trkpt>
      <trkpt lat="45.93457" lon="6.48429">
        <ele>1047.4000244141</ele>
        <time>2013-11-30T14:14:37.000Z</time>
      </trkpt>
      <trkpt lat="45.93439" lon="6.48428">
        <ele>1046.4000244141</ele>
        <time>2013-11-30T14:14:41.000Z</time>
      </trkpt>
      <trkpt lat="45.9343" lon="6.48424">
        <ele>1045.8000488281</ele>
        <time>2013-11-30T14:14:43.000Z</time>
      </trkpt>
      <trkpt lat="45.93424" lon="6.48422">
        <ele>1045.4000244141</ele>
        <time>2013-11-30T14:14:45.000Z</time>
      </trkpt>
      <trkpt lat="45.93405" lon="6.48407">
        <ele>1046.5999755859</ele>
        <time>2013-11-30T14:14:51.000Z</time>
      </trkpt>
      <trkpt lat="45.93397" lon="6.48393">
        <ele>1047.8000488281</ele>
        <time>2013-11-30T14:14:55.000Z</time>
      </trkpt>
      <trkpt lat="45.93395" lon="6.48389">
        <ele>1048.1999511719</ele>
        <time>2013-11-30T14:14:56.000Z</time>
      </trkpt>
      <trkpt lat="45.93382" lon="6.48374">
        <ele>1049.4000244141</ele>
        <time>2013-11-30T14:15:01.000Z</time>
      </trkpt>
      <trkpt lat="45.93369" lon="6.48364">
        <ele>1050.1999511719</ele>
        <time>2013-11-30T14:15:05.000Z</time>
      </trkpt>
      <trkpt lat="45.93362" lon="6.4836">
        <ele>1050.5999755859</ele>
        <time>2013-11-30T14:15:07.000Z</time>
      </trkpt>
      <trkpt lat="45.93347" lon="6.48371">
        <ele>1051.1999511719</ele>
        <time>2013-11-30T14:15:12.000Z</time>
      </trkpt>
      <trkpt lat="45.93346" lon="6.48375">
        <ele>1051.4000244141</ele>
        <time>2013-11-30T14:15:13.000Z</time>
      </trkpt>
      <trkpt lat="45.93348" lon="6.48393">
        <ele>1051.4000244141</ele>
        <time>2013-11-30T14:15:18.000Z</time>
      </trkpt>
      <trkpt lat="45.93354" lon="6.48405">
        <ele>1051</ele>
        <time>2013-11-30T14:15:22.000Z</time>
      </trkpt>
      <trkpt lat="45.93355" lon="6.48409">
        <ele>1051</ele>
        <time>2013-11-30T14:15:23.000Z</time>
      </trkpt>
      <trkpt lat="45.93359" lon="6.48423">
        <ele>1050.4000244141</ele>
        <time>2013-11-30T14:15:27.000Z</time>
      </trkpt>
      <trkpt lat="45.93362" lon="6.48436">
        <ele>1049.8000488281</ele>
        <time>2013-11-30T14:15:31.000Z</time>
      </trkpt>
      <trkpt lat="45.93363" lon="6.48452">
        <ele>1049.4000244141</ele>
        <time>2013-11-30T14:15:35.000Z</time>
      </trkpt>
      <trkpt lat="45.93364" lon="6.48456">
        <ele>1049.4000244141</ele>
        <time>2013-11-30T14:15:36.000Z</time>
      </trkpt>
      <trkpt lat="45.93365" lon="6.48474">
        <ele>1048.8000488281</ele>
        <time>2013-11-30T14:15:41.000Z</time>
      </trkpt>
      <trkpt lat="45.93366" lon="6.48478">
        <ele>1048.8000488281</ele>
        <time>2013-11-30T14:15:42.000Z</time>
      </trkpt>
      <trkpt lat="45.93365" lon="6.4849">
        <ele>1048.5999755859</ele>
        <time>2013-11-30T14:15:45.000Z</time>
      </trkpt>
      <trkpt lat="45.93365" lon="6.48497">
        <ele>1048.4000244141</ele>
        <time>2013-11-30T14:15:47.000Z</time>
      </trkpt>
      <trkpt lat="45.93369" lon="6.48504">
        <ele>1048.1999511719</ele>
        <time>2013-11-30T14:15:50.000Z</time>
      </trkpt>
      <trkpt lat="45.93382" lon="6.48509">
        <ele>1047.4000244141</ele>
        <time>2013-11-30T14:15:55.000Z</time>
      </trkpt>
      <trkpt lat="45.93386" lon="6.4851">
        <ele>1047.1999511719</ele>
        <time>2013-11-30T14:15:56.000Z</time>
      </trkpt>
      <trkpt lat="45.93399" lon="6.48512">
        <ele>1046.1999511719</ele>
        <time>2013-11-30T14:16:01.000Z</time>
      </trkpt>
      <trkpt lat="45.9341" lon="6.48515">
        <ele>1045.4000244141</ele>
        <time>2013-11-30T14:16:05.000Z</time>
      </trkpt>
      <trkpt lat="45.93421" lon="6.48516">
        <ele>1045.4000244141</ele>
        <time>2013-11-30T14:16:09.000Z</time>
      </trkpt>
      <trkpt lat="45.93434" lon="6.48517">
        <ele>1046.5999755859</ele>
        <time>2013-11-30T14:16:14.000Z</time>
      </trkpt>
      <trkpt lat="45.93446" lon="6.48518">
        <ele>1047.5999755859</ele>
        <time>2013-11-30T14:16:18.000Z</time>
      </trkpt>
      <trkpt lat="45.93448" lon="6.48517">
        <ele>1047.8000488281</ele>
        <time>2013-11-30T14:16:19.000Z</time>
      </trkpt>
      <trkpt lat="45.93461" lon="6.4852">
        <ele>1049</ele>
        <time>2013-11-30T14:16:24.000Z</time>
      </trkpt>
      <trkpt lat="45.9347" lon="6.48521">
        <ele>1050</ele>
        <time>2013-11-30T14:16:28.000Z</time>
      </trkpt>
      <trkpt lat="45.93479" lon="6.48527">
        <ele>1051</ele>
        <time>2013-11-30T14:16:32.000Z</time>
      </trkpt>
      <trkpt lat="45.93481" lon="6.48529">
        <ele>1051.1999511719</ele>
        <time>2013-11-30T14:16:33.000Z</time>
      </trkpt>
      <trkpt lat="45.93484" lon="6.48542">
        <ele>1051.8000488281</ele>
        <time>2013-11-30T14:16:37.000Z</time>
      </trkpt>
      <trkpt lat="45.93485" lon="6.4855">
        <ele>1052</ele>
        <time>2013-11-30T14:16:39.000Z</time>
      </trkpt>
      <trkpt lat="45.93485" lon="6.48557">
        <ele>1052.4000244141</ele>
        <time>2013-11-30T14:16:41.000Z</time>
      </trkpt>
      <trkpt lat="45.9348" lon="6.48572">
        <ele>1052.4000244141</ele>
        <time>2013-11-30T14:16:45.000Z</time>
      </trkpt>
      <trkpt lat="45.93479" lon="6.48575">
        <ele>1052.4000244141</ele>
        <time>2013-11-30T14:16:46.000Z</time>
      </trkpt>
      <trkpt lat="45.9347" lon="6.48585">
        <ele>1052.1999511719</ele>
        <time>2013-11-30T14:16:50.000Z</time>
      </trkpt>
      <trkpt lat="45.9345" lon="6.48584">
        <ele>1051</ele>
        <time>2013-11-30T14:16:56.000Z</time>
      </trkpt>
      <trkpt lat="45.93439" lon="6.4858">
        <ele>1050.1999511719</ele>
        <time>2013-11-30T14:17:00.000Z</time>
      </trkpt>
      <trkpt lat="45.93422" lon="6.48578">
        <ele>1049</ele>
        <time>2013-11-30T14:17:05.000Z</time>
      </trkpt>
      <trkpt lat="45.93408" lon="6.48577">
        <ele>1049.4000244141</ele>
        <time>2013-11-30T14:17:09.000Z</time>
      </trkpt>
      <trkpt lat="45.934" lon="6.48581">
        <ele>1050.1999511719</ele>
        <time>2013-11-30T14:17:12.000Z</time>
      </trkpt>
      <trkpt lat="45.93395" lon="6.48585">
        <ele>1051</ele>
        <time>2013-11-30T14:17:14.000Z</time>
      </trkpt>
      <trkpt lat="45.9339" lon="6.486">
        <ele>1052.5999755859</ele>
        <time>2013-11-30T14:17:19.000Z</time>
      </trkpt>
      <trkpt lat="45.93391" lon="6.48611">
        <ele>1053.4000244141</ele>
        <time>2013-11-30T14:17:22.000Z</time>
      </trkpt>
      <trkpt lat="45.93393" lon="6.48621">
        <ele>1053.8000488281</ele>
        <time>2013-11-30T14:17:25.000Z</time>
      </trkpt>
      <trkpt lat="45.93397" lon="6.48635">
        <ele>1054.1999511719</ele>
        <time>2013-11-30T14:17:29.000Z</time>
      </trkpt>
      <trkpt lat="45.93401" lon="6.48649">
        <ele>1054</ele>
        <time>2013-11-30T14:17:33.000Z</time>
      </trkpt>
      <trkpt lat="45.93405" lon="6.48664">
        <ele>1054</ele>
        <time>2013-11-30T14:17:37.000Z</time>
      </trkpt>
      <trkpt lat="45.93406" lon="6.48677">
        <ele>1054.8000488281</ele>
        <time>2013-11-30T14:17:40.000Z</time>
      </trkpt>
      <trkpt lat="45.93406" lon="6.48693">
        <ele>1056</ele>
        <time>2013-11-30T14:17:45.000Z</time>
      </trkpt>
      <trkpt lat="45.93405" lon="6.48701">
        <ele>1057</ele>
        <time>2013-11-30T14:17:47.000Z</time>
      </trkpt>
      <trkpt lat="45.93405" lon="6.48713">
        <ele>1058</ele>
        <time>2013-11-30T14:17:50.000Z</time>
      </trkpt>
      <trkpt lat="45.93405" lon="6.48735">
        <ele>1059.5999755859</ele>
        <time>2013-11-30T14:17:56.000Z</time>
      </trkpt>
      <trkpt lat="45.93406" lon="6.48743">
        <ele>1059.8000488281</ele>
        <time>2013-11-30T14:17:58.000Z</time>
      </trkpt>
      <trkpt lat="45.93413" lon="6.48761">
        <ele>1058.8000488281</ele>
        <time>2013-11-30T14:18:03.000Z</time>
      </trkpt>
      <trkpt lat="45.93413" lon="6.48763">
        <ele>1059.1999511719</ele>
        <time>2013-11-30T14:18:04.000Z</time>
      </trkpt>
      <trkpt lat="45.93413" lon="6.48767">
        <ele>1059.4000244141</ele>
        <time>2013-11-30T14:18:05.000Z</time>
      </trkpt>
      <trkpt lat="45.93417" lon="6.48781">
        <ele>1059.8000488281</ele>
        <time>2013-11-30T14:18:09.000Z</time>
      </trkpt>
      <trkpt lat="45.93421" lon="6.48794">
        <ele>1061.5999755859</ele>
        <time>2013-11-30T14:18:13.000Z</time>
      </trkpt>
      <trkpt lat="45.93422" lon="6.48801">
        <ele>1062.5999755859</ele>
        <time>2013-11-30T14:18:15.000Z</time>
      </trkpt>
      <trkpt lat="45.93425" lon="6.48811">
        <ele>1063.8000488281</ele>
        <time>2013-11-30T14:18:18.000Z</time>
      </trkpt>
      <trkpt lat="45.93428" lon="6.48819">
        <ele>1064.8000488281</ele>
        <time>2013-11-30T14:18:21.000Z</time>
      </trkpt>
      <trkpt lat="45.93433" lon="6.4883">
        <ele>1065.5999755859</ele>
        <time>2013-11-30T14:18:25.000Z</time>
      </trkpt>
      <trkpt lat="45.93439" lon="6.48846">
        <ele>1067.5999755859</ele>
        <time>2013-11-30T14:18:29.000Z</time>
      </trkpt>
      <trkpt lat="45.9344" lon="6.4885">
        <ele>1068</ele>
        <time>2013-11-30T14:18:30.000Z</time>
      </trkpt>
      <trkpt lat="45.93443" lon="6.48861">
        <ele>1069.4000244141</ele>
        <time>2013-11-30T14:18:33.000Z</time>
      </trkpt>
      <trkpt lat="45.93447" lon="6.48878">
        <ele>1071.1999511719</ele>
        <time>2013-11-30T14:18:38.000Z</time>
      </trkpt>
      <trkpt lat="45.9345" lon="6.48888">
        <ele>1072.1999511719</ele>
        <time>2013-11-30T14:18:41.000Z</time>
      </trkpt>
      <trkpt lat="45.93454" lon="6.48907">
        <ele>1073.5999755859</ele>
        <time>2013-11-30T14:18:46.000Z</time>
      </trkpt>
      <trkpt lat="45.93459" lon="6.48923">
        <ele>1074.5999755859</ele>
        <time>2013-11-30T14:18:51.000Z</time>
      </trkpt>
      <trkpt lat="45.93457" lon="6.48928">
        <ele>1076.4000244141</ele>
        <time>2013-11-30T14:18:52.000Z</time>
      </trkpt>
      <trkpt lat="45.93458" lon="6.48937">
        <ele>1078.4000244141</ele>
        <time>2013-11-30T14:18:55.000Z</time>
      </trkpt>
      <trkpt lat="45.93463" lon="6.4895">
        <ele>1079.4000244141</ele>
        <time>2013-11-30T14:18:59.000Z</time>
      </trkpt>
      <trkpt lat="45.93468" lon="6.4896">
        <ele>1079</ele>
        <time>2013-11-30T14:19:03.000Z</time>
      </trkpt>
      <trkpt lat="45.93473" lon="6.48968">
        <ele>1078.4000244141</ele>
        <time>2013-11-30T14:19:06.000Z</time>
      </trkpt>
      <trkpt lat="45.93476" lon="6.48971">
        <ele>1077.8000488281</ele>
        <time>2013-11-30T14:19:07.000Z</time>
      </trkpt>
      <trkpt lat="45.93479" lon="6.48976">
        <ele>1077.4000244141</ele>
        <time>2013-11-30T14:19:09.000Z</time>
      </trkpt>
      <trkpt lat="45.93488" lon="6.48988">
        <ele>1074.5999755859</ele>
        <time>2013-11-30T14:19:14.000Z</time>
      </trkpt>
      <trkpt lat="45.9349" lon="6.48991">
        <ele>1074.1999511719</ele>
        <time>2013-11-30T14:19:15.000Z</time>
      </trkpt>
      <trkpt lat="45.93499" lon="6.49002">
        <ele>1071.1999511719</ele>
        <time>2013-11-30T14:19:20.000Z</time>
      </trkpt>
      <trkpt lat="45.9351" lon="6.49015">
        <ele>1071.8000488281</ele>
        <time>2013-11-30T14:19:25.000Z</time>
      </trkpt>
      <trkpt lat="45.93515" lon="6.49021">
        <ele>1072.4000244141</ele>
        <time>2013-11-30T14:19:28.000Z</time>
      </trkpt>
      <trkpt lat="45.93525" lon="6.49035">
        <ele>1073.1999511719</ele>
        <time>2013-11-30T14:19:34.000Z</time>
      </trkpt>
      <trkpt lat="45.93527" lon="6.49038">
        <ele>1073.4000244141</ele>
        <time>2013-11-30T14:19:35.000Z</time>
      </trkpt>
      <trkpt lat="45.93536" lon="6.49046">
        <ele>1073.1999511719</ele>
        <time>2013-11-30T14:19:39.000Z</time>
      </trkpt>
      <trkpt lat="45.93537" lon="6.4905">
        <ele>1073.4000244141</ele>
        <time>2013-11-30T14:19:40.000Z</time>
      </trkpt>
      <trkpt lat="45.93543" lon="6.49058">
        <ele>1073.4000244141</ele>
        <time>2013-11-30T14:19:44.000Z</time>
      </trkpt>
      <trkpt lat="45.9355" lon="6.49068">
        <ele>1073</ele>
        <time>2013-11-30T14:19:48.000Z</time>
      </trkpt>
      <trkpt lat="45.93559" lon="6.49078">
        <ele>1072.4000244141</ele>
        <time>2013-11-30T14:19:53.000Z</time>
      </trkpt>
      <trkpt lat="45.93561" lon="6.4908">
        <ele>1072.1999511719</ele>
        <time>2013-11-30T14:19:54.000Z</time>
      </trkpt>
      <trkpt lat="45.93569" lon="6.49092">
        <ele>1071.8000488281</ele>
        <time>2013-11-30T14:19:59.000Z</time>
      </trkpt>
      <trkpt lat="45.93571" lon="6.49093">
        <ele>1071.4000244141</ele>
        <time>2013-11-30T14:20:00.000Z</time>
      </trkpt>
      <trkpt lat="45.93579" lon="6.49104">
        <ele>1070.5999755859</ele>
        <time>2013-11-30T14:20:05.000Z</time>
      </trkpt>
      <trkpt lat="45.93581" lon="6.49107">
        <ele>1070.5999755859</ele>
        <time>2013-11-30T14:20:06.000Z</time>
      </trkpt>
      <trkpt lat="45.9359" lon="6.49118">
        <ele>1070.8000488281</ele>
        <time>2013-11-30T14:20:11.000Z</time>
      </trkpt>
      <trkpt lat="45.93597" lon="6.49126">
        <ele>1071.1999511719</ele>
        <time>2013-11-30T14:20:15.000Z</time>
      </trkpt>
      <trkpt lat="45.93598" lon="6.49129">
        <ele>1071.4000244141</ele>
        <time>2013-11-30T14:20:16.000Z</time>
      </trkpt>
      <trkpt lat="45.93608" lon="6.4914">
        <ele>1071.8000488281</ele>
        <time>2013-11-30T14:20:21.000Z</time>
      </trkpt>
      <trkpt lat="45.93612" lon="6.49144">
        <ele>1071.8000488281</ele>
        <time>2013-11-30T14:20:23.000Z</time>
      </trkpt>
      <trkpt lat="45.93621" lon="6.49155">
        <ele>1072</ele>
        <time>2013-11-30T14:20:28.000Z</time>
      </trkpt>
      <trkpt lat="45.93628" lon="6.49163">
        <ele>1071.8000488281</ele>
        <time>2013-11-30T14:20:32.000Z</time>
      </trkpt>
      <trkpt lat="45.9363" lon="6.49166">
        <ele>1072</ele>
        <time>2013-11-30T14:20:33.000Z</time>
      </trkpt>
      <trkpt lat="45.93638" lon="6.4918">
        <ele>1073</ele>
        <time>2013-11-30T14:20:38.000Z</time>
      </trkpt>
      <trkpt lat="45.93643" lon="6.49189">
        <ele>1073.5999755859</ele>
        <time>2013-11-30T14:20:41.000Z</time>
      </trkpt>
      <trkpt lat="45.93647" lon="6.49195">
        <ele>1074</ele>
        <time>2013-11-30T14:20:44.000Z</time>
      </trkpt>
      <trkpt lat="45.93653" lon="6.49208">
        <ele>1074.5999755859</ele>
        <time>2013-11-30T14:20:49.000Z</time>
      </trkpt>
      <trkpt lat="45.9366" lon="6.49219">
        <ele>1074.4000244141</ele>
        <time>2013-11-30T14:20:53.000Z</time>
      </trkpt>
      <trkpt lat="45.93663" lon="6.49223">
        <ele>1074</ele>
        <time>2013-11-30T14:20:55.000Z</time>
      </trkpt>
      <trkpt lat="45.9367" lon="6.49229">
        <ele>1074</ele>
        <time>2013-11-30T14:20:59.000Z</time>
      </trkpt>
      <trkpt lat="45.93677" lon="6.49237">
        <ele>1074.8000488281</ele>
        <time>2013-11-30T14:21:03.000Z</time>
      </trkpt>
      <trkpt lat="45.93679" lon="6.49238">
        <ele>1075</ele>
        <time>2013-11-30T14:21:04.000Z</time>
      </trkpt>
      <trkpt lat="45.93691" lon="6.49244">
        <ele>1075.8000488281</ele>
        <time>2013-11-30T14:21:09.000Z</time>
      </trkpt>
      <trkpt lat="45.93702" lon="6.49252">
        <ele>1076.8000488281</ele>
        <time>2013-11-30T14:21:14.000Z</time>
      </trkpt>
      <trkpt lat="45.93708" lon="6.49257">
        <ele>1077.1999511719</ele>
        <time>2013-11-30T14:21:18.000Z</time>
      </trkpt>
      <trkpt lat="45.93719" lon="6.49265">
        <ele>1078</ele>
        <time>2013-11-30T14:21:23.000Z</time>
      </trkpt>
      <trkpt lat="45.93723" lon="6.49269">
        <ele>1078.4000244141</ele>
        <time>2013-11-30T14:21:25.000Z</time>
      </trkpt>
      <trkpt lat="45.9373" lon="6.49277">
        <ele>1078.8000488281</ele>
        <time>2013-11-30T14:21:29.000Z</time>
      </trkpt>
      <trkpt lat="45.93735" lon="6.49286">
        <ele>1079.1999511719</ele>
        <time>2013-11-30T14:21:33.000Z</time>
      </trkpt>
      <trkpt lat="45.93741" lon="6.49301">
        <ele>1079.5999755859</ele>
        <time>2013-11-30T14:21:38.000Z</time>
      </trkpt>
      <trkpt lat="45.93746" lon="6.49312">
        <ele>1079.5999755859</ele>
        <time>2013-11-30T14:21:42.000Z</time>
      </trkpt>
      <trkpt lat="45.93754" lon="6.49322">
        <ele>1079.5999755859</ele>
        <time>2013-11-30T14:21:46.000Z</time>
      </trkpt>
      <trkpt lat="45.93762" lon="6.49327">
        <ele>1079.5999755859</ele>
        <time>2013-11-30T14:21:50.000Z</time>
      </trkpt>
      <trkpt lat="45.93775" lon="6.49332">
        <ele>1079.4000244141</ele>
        <time>2013-11-30T14:21:56.000Z</time>
      </trkpt>
      <trkpt lat="45.93783" lon="6.49338">
        <ele>1079.5999755859</ele>
        <time>2013-11-30T14:22:01.000Z</time>
      </trkpt>
      <trkpt lat="45.93786" lon="6.49341">
        <ele>1079.8000488281</ele>
        <time>2013-11-30T14:22:03.000Z</time>
      </trkpt>
      <trkpt lat="45.93794" lon="6.4935">
        <ele>1080.1999511719</ele>
        <time>2013-11-30T14:22:08.000Z</time>
      </trkpt>
      <trkpt lat="45.93796" lon="6.49351">
        <ele>1080.1999511719</ele>
        <time>2013-11-30T14:22:09.000Z</time>
      </trkpt>
      <trkpt lat="45.93803" lon="6.49358">
        <ele>1080.4000244141</ele>
        <time>2013-11-30T14:22:13.000Z</time>
      </trkpt>
      <trkpt lat="45.93811" lon="6.49366">
        <ele>1080</ele>
        <time>2013-11-30T14:22:17.000Z</time>
      </trkpt>
      <trkpt lat="45.93816" lon="6.49373">
        <ele>1079.8000488281</ele>
        <time>2013-11-30T14:22:20.000Z</time>
      </trkpt>
      <trkpt lat="45.93822" lon="6.4938">
        <ele>1079.1999511719</ele>
        <time>2013-11-30T14:22:24.000Z</time>
      </trkpt>
      <trkpt lat="45.93834" lon="6.49391">
        <ele>1078.1999511719</ele>
        <time>2013-11-30T14:22:30.000Z</time>
      </trkpt>
      <trkpt lat="45.93839" lon="6.49397">
        <ele>1078.8000488281</ele>
        <time>2013-11-30T14:22:33.000Z</time>
      </trkpt>
      <trkpt lat="45.9384" lon="6.49398">
        <ele>1079</ele>
        <time>2013-11-30T14:22:34.000Z</time>
      </trkpt>
      <trkpt lat="45.93848" lon="6.49408">
        <ele>1080</ele>
        <time>2013-11-30T14:22:39.000Z</time>
      </trkpt>
      <trkpt lat="45.93855" lon="6.49417">
        <ele>1080.8000488281</ele>
        <time>2013-11-30T14:22:43.000Z</time>
      </trkpt>
      <trkpt lat="45.93856" lon="6.49419">
        <ele>1081.1999511719</ele>
        <time>2013-11-30T14:22:44.000Z</time>
      </trkpt>
      <trkpt lat="45.93869" lon="6.49436">
        <ele>1083.8000488281</ele>
        <time>2013-11-30T14:22:51.000Z</time>
      </trkpt>
      <trkpt lat="45.93875" lon="6.49451">
        <ele>1085</ele>
        <time>2013-11-30T14:22:57.000Z</time>
      </trkpt>
      <trkpt lat="45.93875" lon="6.49454">
        <ele>1085</ele>
        <time>2013-11-30T14:22:58.000Z</time>
      </trkpt>
      <trkpt lat="45.93874" lon="6.49459">
        <ele>1085.1999511719</ele>
        <time>2013-11-30T14:23:00.000Z</time>
      </trkpt>
      <trkpt lat="45.93868" lon="6.49474">
        <ele>1085.5999755859</ele>
        <time>2013-11-30T14:23:07.000Z</time>
      </trkpt>
      <trkpt lat="45.93864" lon="6.49483">
        <ele>1086</ele>
        <time>2013-11-30T14:23:11.000Z</time>
      </trkpt>
      <trkpt lat="45.93855" lon="6.49497">
        <ele>1086.8000488281</ele>
        <time>2013-11-30T14:23:17.000Z</time>
      </trkpt>
      <trkpt lat="45.93852" lon="6.49504">
        <ele>1087.8000488281</ele>
        <time>2013-11-30T14:23:20.000Z</time>
      </trkpt>
      <trkpt lat="45.93849" lon="6.49515">
        <ele>1090</ele>
        <time>2013-11-30T14:23:24.000Z</time>
      </trkpt>
      <trkpt lat="45.93855" lon="6.49529">
        <ele>1092.1999511719</ele>
        <time>2013-11-30T14:23:30.000Z</time>
      </trkpt>
      <trkpt lat="45.93862" lon="6.49539">
        <ele>1093.4000244141</ele>
        <time>2013-11-30T14:23:34.000Z</time>
      </trkpt>
      <trkpt lat="45.93863" lon="6.49542">
        <ele>1093.5999755859</ele>
        <time>2013-11-30T14:23:35.000Z</time>
      </trkpt>
      <trkpt lat="45.93867" lon="6.49549">
        <ele>1094.4000244141</ele>
        <time>2013-11-30T14:23:38.000Z</time>
      </trkpt>
      <trkpt lat="45.93879" lon="6.49565">
        <ele>1094.5999755859</ele>
        <time>2013-11-30T14:23:44.000Z</time>
      </trkpt>
      <trkpt lat="45.93887" lon="6.49575">
        <ele>1094</ele>
        <time>2013-11-30T14:23:48.000Z</time>
      </trkpt>
      <trkpt lat="45.93891" lon="6.49581">
        <ele>1093.8000488281</ele>
        <time>2013-11-30T14:23:51.000Z</time>
      </trkpt>
      <trkpt lat="45.93901" lon="6.49592">
        <ele>1093</ele>
        <time>2013-11-30T14:23:57.000Z</time>
      </trkpt>
      <trkpt lat="45.93909" lon="6.49601">
        <ele>1092.4000244141</ele>
        <time>2013-11-30T14:24:01.000Z</time>
      </trkpt>
      <trkpt lat="45.93911" lon="6.49601">
        <ele>1092.1999511719</ele>
        <time>2013-11-30T14:24:02.000Z</time>
      </trkpt>
      <trkpt lat="45.93919" lon="6.49612">
        <ele>1092</ele>
        <time>2013-11-30T14:24:06.000Z</time>
      </trkpt>
      <trkpt lat="45.93923" lon="6.49622">
        <ele>1093.1999511719</ele>
        <time>2013-11-30T14:24:10.000Z</time>
      </trkpt>
      <trkpt lat="45.9393" lon="6.49631">
        <ele>1094</ele>
        <time>2013-11-30T14:24:14.000Z</time>
      </trkpt>
      <trkpt lat="45.93931" lon="6.49636">
        <ele>1094.4000244141</ele>
        <time>2013-11-30T14:24:17.000Z</time>
      </trkpt>
      <trkpt lat="45.93936" lon="6.4964">
        <ele>1094.5999755859</ele>
        <time>2013-11-30T14:24:21.000Z</time>
      </trkpt>
      <trkpt lat="45.93939" lon="6.49643">
        <ele>1094.5999755859</ele>
        <time>2013-11-30T14:24:23.000Z</time>
      </trkpt>
      <trkpt lat="45.93945" lon="6.49642">
        <ele>1094</ele>
        <time>2013-11-30T14:24:28.000Z</time>
      </trkpt>
      <trkpt lat="45.93954" lon="6.49646">
        <ele>1093.8000488281</ele>
        <time>2013-11-30T14:24:33.000Z</time>
      </trkpt>
      <trkpt lat="45.93963" lon="6.49657">
        <ele>1093.8000488281</ele>
        <time>2013-11-30T14:24:37.000Z</time>
      </trkpt>
      <trkpt lat="45.93968" lon="6.4966">
        <ele>1093.4000244141</ele>
        <time>2013-11-30T14:24:39.000Z</time>
      </trkpt>
      <trkpt lat="45.93974" lon="6.49669">
        <ele>1093.5999755859</ele>
        <time>2013-11-30T14:24:43.000Z</time>
      </trkpt>
      <trkpt lat="45.93977" lon="6.49671">
        <ele>1093.4000244141</ele>
        <time>2013-11-30T14:24:45.000Z</time>
      </trkpt>
      <trkpt lat="45.93986" lon="6.49679">
        <ele>1093.4000244141</ele>
        <time>2013-11-30T14:24:49.000Z</time>
      </trkpt>
      <trkpt lat="45.93993" lon="6.49685">
        <ele>1093.1999511719</ele>
        <time>2013-11-30T14:24:54.000Z</time>
      </trkpt>
      <trkpt lat="45.93994" lon="6.49688">
        <ele>1093.4000244141</ele>
        <time>2013-11-30T14:24:55.000Z</time>
      </trkpt>
      <trkpt lat="45.93999" lon="6.49693">
        <ele>1093</ele>
        <time>2013-11-30T14:24:57.000Z</time>
      </trkpt>
      <trkpt lat="45.94006" lon="6.49701">
        <ele>1094</ele>
        <time>2013-11-30T14:25:02.000Z</time>
      </trkpt>
      <trkpt lat="45.9401" lon="6.49711">
        <ele>1095.1999511719</ele>
        <time>2013-11-30T14:25:05.000Z</time>
      </trkpt>
      <trkpt lat="45.94015" lon="6.49719">
        <ele>1096.4000244141</ele>
        <time>2013-11-30T14:25:09.000Z</time>
      </trkpt>
      <trkpt lat="45.9402" lon="6.49729">
        <ele>1097.5999755859</ele>
        <time>2013-11-30T14:25:13.000Z</time>
      </trkpt>
      <trkpt lat="45.94025" lon="6.49731">
        <ele>1098.1999511719</ele>
        <time>2013-11-30T14:25:15.000Z</time>
      </trkpt>
      <trkpt lat="45.94034" lon="6.49737">
        <ele>1099.1999511719</ele>
        <time>2013-11-30T14:25:20.000Z</time>
      </trkpt>
      <trkpt lat="45.94044" lon="6.49749">
        <ele>1101</ele>
        <time>2013-11-30T14:25:26.000Z</time>
      </trkpt>
      <trkpt lat="45.94047" lon="6.4976">
        <ele>1102.5999755859</ele>
        <time>2013-11-30T14:25:29.000Z</time>
      </trkpt>
      <trkpt lat="45.94054" lon="6.49769">
        <ele>1103.8000488281</ele>
        <time>2013-11-30T14:25:35.000Z</time>
      </trkpt>
      <trkpt lat="45.94055" lon="6.4977">
        <ele>1103.8000488281</ele>
        <time>2013-11-30T14:25:36.000Z</time>
      </trkpt>
      <trkpt lat="45.94062" lon="6.49776">
        <ele>1104.5999755859</ele>
        <time>2013-11-30T14:25:41.000Z</time>
      </trkpt>
      <trkpt lat="45.94063" lon="6.49777">
        <ele>1104.5999755859</ele>
        <time>2013-11-30T14:25:42.000Z</time>
      </trkpt>
      <trkpt lat="45.94074" lon="6.49789">
        <ele>1105.1999511719</ele>
        <time>2013-11-30T14:25:48.000Z</time>
      </trkpt>
      <trkpt lat="45.94074" lon="6.4979">
        <ele>1105.4000244141</ele>
        <time>2013-11-30T14:25:49.000Z</time>
      </trkpt>
      <trkpt lat="45.94074" lon="6.49809">
        <ele>1106.5999755859</ele>
        <time>2013-11-30T14:25:55.000Z</time>
      </trkpt>
      <trkpt lat="45.94077" lon="6.49823">
        <ele>1107.1999511719</ele>
        <time>2013-11-30T14:25:59.000Z</time>
      </trkpt>
      <trkpt lat="45.94076" lon="6.49834">
        <ele>1108.1999511719</ele>
        <time>2013-11-30T14:26:02.000Z</time>
      </trkpt>
      <trkpt lat="45.94075" lon="6.4984">
        <ele>1109.1999511719</ele>
        <time>2013-11-30T14:26:04.000Z</time>
      </trkpt>
      <trkpt lat="45.94078" lon="6.49848">
        <ele>1109.5999755859</ele>
        <time>2013-11-30T14:26:08.000Z</time>
      </trkpt>
      <trkpt lat="45.94083" lon="6.49852">
        <ele>1109.4000244141</ele>
        <time>2013-11-30T14:26:12.000Z</time>
      </trkpt>
      <trkpt lat="45.94087" lon="6.49862">
        <ele>1110.5999755859</ele>
        <time>2013-11-30T14:26:16.000Z</time>
      </trkpt>
      <trkpt lat="45.94092" lon="6.49874">
        <ele>1112.1999511719</ele>
        <time>2013-11-30T14:26:20.000Z</time>
      </trkpt>
      <trkpt lat="45.94094" lon="6.49881">
        <ele>1112.8000488281</ele>
        <time>2013-11-30T14:26:23.000Z</time>
      </trkpt>
      <trkpt lat="45.94095" lon="6.49883">
        <ele>1113.1999511719</ele>
        <time>2013-11-30T14:26:26.000Z</time>
      </trkpt>
      <trkpt lat="45.94095" lon="6.49891">
        <ele>1114</ele>
        <time>2013-11-30T14:26:30.000Z</time>
      </trkpt>
      <trkpt lat="45.94097" lon="6.49895">
        <ele>1114.4000244141</ele>
        <time>2013-11-30T14:26:32.000Z</time>
      </trkpt>
      <trkpt lat="45.94104" lon="6.49909">
        <ele>1115.5999755859</ele>
        <time>2013-11-30T14:26:37.000Z</time>
      </trkpt>
      <trkpt lat="45.94106" lon="6.49916">
        <ele>1116.1999511719</ele>
        <time>2013-11-30T14:26:39.000Z</time>
      </trkpt>
      <trkpt lat="45.94111" lon="6.49925">
        <ele>1116.8000488281</ele>
        <time>2013-11-30T14:26:43.000Z</time>
      </trkpt>
      <trkpt lat="45.94115" lon="6.49941">
        <ele>1117.8000488281</ele>
        <time>2013-11-30T14:26:46.000Z</time>
      </trkpt>
      <trkpt lat="45.94118" lon="6.49952">
        <ele>1118.1999511719</ele>
        <time>2013-11-30T14:26:50.000Z</time>
      </trkpt>
      <trkpt lat="45.94116" lon="6.49961">
        <ele>1119</ele>
        <time>2013-11-30T14:26:53.000Z</time>
      </trkpt>
      <trkpt lat="45.94119" lon="6.4997">
        <ele>1119.1999511719</ele>
        <time>2013-11-30T14:26:57.000Z</time>
      </trkpt>
      <trkpt lat="45.94126" lon="6.49986">
        <ele>1118.5999755859</ele>
        <time>2013-11-30T14:27:03.000Z</time>
      </trkpt>
      <trkpt lat="45.94127" lon="6.49988">
        <ele>1118.5999755859</ele>
        <time>2013-11-30T14:27:04.000Z</time>
      </trkpt>
      <trkpt lat="45.94131" lon="6.49993">
        <ele>1117.5999755859</ele>
        <time>2013-11-30T14:27:07.000Z</time>
      </trkpt>
      <trkpt lat="45.94139" lon="6.50006">
        <ele>1116.4000244141</ele>
        <time>2013-11-30T14:27:13.000Z</time>
      </trkpt>
      <trkpt lat="45.94141" lon="6.50008">
        <ele>1116.1999511719</ele>
        <time>2013-11-30T14:27:14.000Z</time>
      </trkpt>
      <trkpt lat="45.94144" lon="6.50011">
        <ele>1115.5999755859</ele>
        <time>2013-11-30T14:27:16.000Z</time>
      </trkpt>
      <trkpt lat="45.94159" lon="6.50021">
        <ele>1112.5999755859</ele>
        <time>2013-11-30T14:27:21.000Z</time>
      </trkpt>
      <trkpt lat="45.94176" lon="6.50033">
        <ele>1110.4000244141</ele>
        <time>2013-11-30T14:27:25.000Z</time>
      </trkpt>
      <trkpt lat="45.94192" lon="6.50044">
        <ele>1109.4000244141</ele>
        <time>2013-11-30T14:27:28.000Z</time>
      </trkpt>
      <trkpt lat="45.94205" lon="6.50058">
        <ele>1108</ele>
        <time>2013-11-30T14:27:32.000Z</time>
      </trkpt>
      <trkpt lat="45.9422" lon="6.50071">
        <ele>1105.8000488281</ele>
        <time>2013-11-30T14:27:37.000Z</time>
      </trkpt>
      <trkpt lat="45.94226" lon="6.5008">
        <ele>1105</ele>
        <time>2013-11-30T14:27:40.000Z</time>
      </trkpt>
      <trkpt lat="45.94229" lon="6.50086">
        <ele>1104.5999755859</ele>
        <time>2013-11-30T14:27:42.000Z</time>
      </trkpt>
      <trkpt lat="45.94235" lon="6.50092">
        <ele>1104</ele>
        <time>2013-11-30T14:27:44.000Z</time>
      </trkpt>
      <trkpt lat="45.9424" lon="6.50106">
        <ele>1104</ele>
        <time>2013-11-30T14:27:48.000Z</time>
      </trkpt>
      <trkpt lat="45.94248" lon="6.50124">
        <ele>1103.4000244141</ele>
        <time>2013-11-30T14:27:53.000Z</time>
      </trkpt>
      <trkpt lat="45.94253" lon="6.50133">
        <ele>1103.4000244141</ele>
        <time>2013-11-30T14:27:56.000Z</time>
      </trkpt>
      <trkpt lat="45.94263" lon="6.50133">
        <ele>1103</ele>
        <time>2013-11-30T14:27:59.000Z</time>
      </trkpt>
      <trkpt lat="45.94271" lon="6.50134">
        <ele>1102.5999755859</ele>
        <time>2013-11-30T14:28:03.000Z</time>
      </trkpt>
      <trkpt lat="45.94273" lon="6.50134">
        <ele>1102.5999755859</ele>
        <time>2013-11-30T14:28:04.000Z</time>
      </trkpt>
      <trkpt lat="45.94284" lon="6.50148">
        <ele>1102.4000244141</ele>
        <time>2013-11-30T14:28:08.000Z</time>
      </trkpt>
      <trkpt lat="45.9429" lon="6.50161">
        <ele>1102</ele>
        <time>2013-11-30T14:28:11.000Z</time>
      </trkpt>
      <trkpt lat="45.94298" lon="6.50181">
        <ele>1102.4000244141</ele>
        <time>2013-11-30T14:28:16.000Z</time>
      </trkpt>
      <trkpt lat="45.94299" lon="6.50185">
        <ele>1102.5999755859</ele>
        <time>2013-11-30T14:28:17.000Z</time>
      </trkpt>
      <trkpt lat="45.94305" lon="6.50209">
        <ele>1103</ele>
        <time>2013-11-30T14:28:23.000Z</time>
      </trkpt>
      <trkpt lat="45.94315" lon="6.50232">
        <ele>1102.8000488281</ele>
        <time>2013-11-30T14:28:29.000Z</time>
      </trkpt>
      <trkpt lat="45.94318" lon="6.50245">
        <ele>1102.5999755859</ele>
        <time>2013-11-30T14:28:32.000Z</time>
      </trkpt>
      <trkpt lat="45.94328" lon="6.50261">
        <ele>1101.4000244141</ele>
        <time>2013-11-30T14:28:36.000Z</time>
      </trkpt>
      <trkpt lat="45.94331" lon="6.50274">
        <ele>1101.4000244141</ele>
        <time>2013-11-30T14:28:39.000Z</time>
      </trkpt>
      <trkpt lat="45.94335" lon="6.50289">
        <ele>1101.5999755859</ele>
        <time>2013-11-30T14:28:43.000Z</time>
      </trkpt>
      <trkpt lat="45.94336" lon="6.50292">
        <ele>1101.5999755859</ele>
        <time>2013-11-30T14:28:44.000Z</time>
      </trkpt>
      <trkpt lat="45.94337" lon="6.50299">
        <ele>1102</ele>
        <time>2013-11-30T14:28:46.000Z</time>
      </trkpt>
      <trkpt lat="45.94341" lon="6.50313">
        <ele>1102.5999755859</ele>
        <time>2013-11-30T14:28:50.000Z</time>
      </trkpt>
      <trkpt lat="45.94342" lon="6.50317">
        <ele>1102.8000488281</ele>
        <time>2013-11-30T14:28:51.000Z</time>
      </trkpt>
      <trkpt lat="45.94347" lon="6.50332">
        <ele>1103.4000244141</ele>
        <time>2013-11-30T14:28:57.000Z</time>
      </trkpt>
      <trkpt lat="45.94348" lon="6.50334">
        <ele>1103.4000244141</ele>
        <time>2013-11-30T14:28:58.000Z</time>
      </trkpt>
      <trkpt lat="45.9435" lon="6.50346">
        <ele>1104</ele>
        <time>2013-11-30T14:29:02.000Z</time>
      </trkpt>
      <trkpt lat="45.94354" lon="6.50351">
        <ele>1104.4000244141</ele>
        <time>2013-11-30T14:29:04.000Z</time>
      </trkpt>
      <trkpt lat="45.94361" lon="6.50366">
        <ele>1105</ele>
        <time>2013-11-30T14:29:08.000Z</time>
      </trkpt>
      <trkpt lat="45.94365" lon="6.50372">
        <ele>1105.1999511719</ele>
        <time>2013-11-30T14:29:10.000Z</time>
      </trkpt>
      <trkpt lat="45.94373" lon="6.50383">
        <ele>1105.5999755859</ele>
        <time>2013-11-30T14:29:14.000Z</time>
      </trkpt>
      <trkpt lat="45.94377" lon="6.50394">
        <ele>1105.8000488281</ele>
        <time>2013-11-30T14:29:18.000Z</time>
      </trkpt>
      <trkpt lat="45.94384" lon="6.50409">
        <ele>1105.8000488281</ele>
        <time>2013-11-30T14:29:22.000Z</time>
      </trkpt>
      <trkpt lat="45.94388" lon="6.50423">
        <ele>1106.1999511719</ele>
        <time>2013-11-30T14:29:26.000Z</time>
      </trkpt>
      <trkpt lat="45.9439" lon="6.50432">
        <ele>1106.5999755859</ele>
        <time>2013-11-30T14:29:29.000Z</time>
      </trkpt>
      <trkpt lat="45.94393" lon="6.50448">
        <ele>1107.1999511719</ele>
        <time>2013-11-30T14:29:34.000Z</time>
      </trkpt>
      <trkpt lat="45.94395" lon="6.50463">
        <ele>1107.5999755859</ele>
        <time>2013-11-30T14:29:38.000Z</time>
      </trkpt>
      <trkpt lat="45.94396" lon="6.50467">
        <ele>1107.8000488281</ele>
        <time>2013-11-30T14:29:39.000Z</time>
      </trkpt>
      <trkpt lat="45.94397" lon="6.50469">
        <ele>1107.8000488281</ele>
        <time>2013-11-30T14:29:40.000Z</time>
      </trkpt>
      <trkpt lat="45.944" lon="6.50479">
        <ele>1107.8000488281</ele>
        <time>2013-11-30T14:29:43.000Z</time>
      </trkpt>
      <trkpt lat="45.94401" lon="6.50481">
        <ele>1107.8000488281</ele>
        <time>2013-11-30T14:29:44.000Z</time>
      </trkpt>
      <trkpt lat="45.94406" lon="6.50494">
        <ele>1107.5999755859</ele>
        <time>2013-11-30T14:29:48.000Z</time>
      </trkpt>
      <trkpt lat="45.94411" lon="6.50502">
        <ele>1107</ele>
        <time>2013-11-30T14:29:52.000Z</time>
      </trkpt>
      <trkpt lat="45.94414" lon="6.50508">
        <ele>1107.1999511719</ele>
        <time>2013-11-30T14:29:54.000Z</time>
      </trkpt>
      <trkpt lat="45.94421" lon="6.50523">
        <ele>1108.4000244141</ele>
        <time>2013-11-30T14:30:00.000Z</time>
      </trkpt>
      <trkpt lat="45.94423" lon="6.50528">
        <ele>1109</ele>
        <time>2013-11-30T14:30:02.000Z</time>
      </trkpt>
      <trkpt lat="45.94427" lon="6.50533">
        <ele>1109.8000488281</ele>
        <time>2013-11-30T14:30:04.000Z</time>
      </trkpt>
      <trkpt lat="45.94433" lon="6.50543">
        <ele>1111.1999511719</ele>
        <time>2013-11-30T14:30:08.000Z</time>
      </trkpt>
      <trkpt lat="45.94434" lon="6.50545">
        <ele>1111.5999755859</ele>
        <time>2013-11-30T14:30:09.000Z</time>
      </trkpt>
      <trkpt lat="45.9444" lon="6.50558">
        <ele>1113</ele>
        <time>2013-11-30T14:30:14.000Z</time>
      </trkpt>
      <trkpt lat="45.94443" lon="6.50559">
        <ele>1113.1999511719</ele>
        <time>2013-11-30T14:30:15.000Z</time>
      </trkpt>
      <trkpt lat="45.9445" lon="6.50567">
        <ele>1114.4000244141</ele>
        <time>2013-11-30T14:30:19.000Z</time>
      </trkpt>
      <trkpt lat="45.94452" lon="6.50568">
        <ele>1114.5999755859</ele>
        <time>2013-11-30T14:30:20.000Z</time>
      </trkpt>
      <trkpt lat="45.94462" lon="6.50562">
        <ele>1115.1999511719</ele>
        <time>2013-11-30T14:30:25.000Z</time>
      </trkpt>
      <trkpt lat="45.94464" lon="6.50549">
        <ele>1114.5999755859</ele>
        <time>2013-11-30T14:30:29.000Z</time>
      </trkpt>
      <trkpt lat="45.9446" lon="6.50535">
        <ele>1113.5999755859</ele>
        <time>2013-11-30T14:30:33.000Z</time>
      </trkpt>
      <trkpt lat="45.94458" lon="6.50532">
        <ele>1113.1999511719</ele>
        <time>2013-11-30T14:30:34.000Z</time>
      </trkpt>
      <trkpt lat="45.9445" lon="6.50521">
        <ele>1111.5999755859</ele>
        <time>2013-11-30T14:30:38.000Z</time>
      </trkpt>
      <trkpt lat="45.94444" lon="6.50504">
        <ele>1109.8000488281</ele>
        <time>2013-11-30T14:30:42.000Z</time>
      </trkpt>
      <trkpt lat="45.94438" lon="6.50478">
        <ele>1108.5999755859</ele>
        <time>2013-11-30T14:30:48.000Z</time>
      </trkpt>
      <trkpt lat="45.94435" lon="6.50464">
        <ele>1108</ele>
        <time>2013-11-30T14:30:51.000Z</time>
      </trkpt>
      <trkpt lat="45.94431" lon="6.50444">
        <ele>1107</ele>
        <time>2013-11-30T14:30:55.000Z</time>
      </trkpt>
      <trkpt lat="45.94428" lon="6.50427">
        <ele>1106.1999511719</ele>
        <time>2013-11-30T14:30:59.000Z</time>
      </trkpt>
      <trkpt lat="45.94426" lon="6.50424">
        <ele>1105.8000488281</ele>
        <time>2013-11-30T14:31:00.000Z</time>
      </trkpt>
      <trkpt lat="45.94419" lon="6.50409">
        <ele>1104.5999755859</ele>
        <time>2013-11-30T14:31:03.000Z</time>
      </trkpt>
      <trkpt lat="45.94417" lon="6.50406">
        <ele>1104.1999511719</ele>
        <time>2013-11-30T14:31:04.000Z</time>
      </trkpt>
      <trkpt lat="45.94409" lon="6.50386">
        <ele>1104.5999755859</ele>
        <time>2013-11-30T14:31:08.000Z</time>
      </trkpt>
      <trkpt lat="45.94399" lon="6.50374">
        <ele>1104.8000488281</ele>
        <time>2013-11-30T14:31:12.000Z</time>
      </trkpt>
      <trkpt lat="45.94387" lon="6.50365">
        <ele>1104.8000488281</ele>
        <time>2013-11-30T14:31:16.000Z</time>
      </trkpt>
      <trkpt lat="45.94385" lon="6.50362">
        <ele>1104.8000488281</ele>
        <time>2013-11-30T14:31:17.000Z</time>
      </trkpt>
      <trkpt lat="45.94379" lon="6.50345">
        <ele>1104.4000244141</ele>
        <time>2013-11-30T14:31:21.000Z</time>
      </trkpt>
      <trkpt lat="45.94377" lon="6.50337">
        <ele>1104.1999511719</ele>
        <time>2013-11-30T14:31:23.000Z</time>
      </trkpt>
      <trkpt lat="45.94369" lon="6.50327">
        <ele>1103.8000488281</ele>
        <time>2013-11-30T14:31:26.000Z</time>
      </trkpt>
      <trkpt lat="45.94365" lon="6.50299">
        <ele>1103.8000488281</ele>
        <time>2013-11-30T14:31:32.000Z</time>
      </trkpt>
      <trkpt lat="45.94368" lon="6.50277">
        <ele>1104</ele>
        <time>2013-11-30T14:31:37.000Z</time>
      </trkpt>
      <trkpt lat="45.94368" lon="6.50258">
        <ele>1104</ele>
        <time>2013-11-30T14:31:42.000Z</time>
      </trkpt>
      <trkpt lat="45.94362" lon="6.50233">
        <ele>1103.4000244141</ele>
        <time>2013-11-30T14:31:47.000Z</time>
      </trkpt>
      <trkpt lat="45.94354" lon="6.50208">
        <ele>1102</ele>
        <time>2013-11-30T14:31:53.000Z</time>
      </trkpt>
      <trkpt lat="45.94349" lon="6.5019">
        <ele>1101</ele>
        <time>2013-11-30T14:31:58.000Z</time>
      </trkpt>
      <trkpt lat="45.94344" lon="6.5017">
        <ele>1099.8000488281</ele>
        <time>2013-11-30T14:32:03.000Z</time>
      </trkpt>
      <trkpt lat="45.94338" lon="6.50155">
        <ele>1099.4000244141</ele>
        <time>2013-11-30T14:32:08.000Z</time>
      </trkpt>
      <trkpt lat="45.94328" lon="6.50134">
        <ele>1099.8000488281</ele>
        <time>2013-11-30T14:32:13.000Z</time>
      </trkpt>
      <trkpt lat="45.9432" lon="6.50119">
        <ele>1100.5999755859</ele>
        <time>2013-11-30T14:32:18.000Z</time>
      </trkpt>
      <trkpt lat="45.94312" lon="6.50106">
        <ele>1101</ele>
        <time>2013-11-30T14:32:23.000Z</time>
      </trkpt>
      <trkpt lat="45.94306" lon="6.50094">
        <ele>1101.1999511719</ele>
        <time>2013-11-30T14:32:28.000Z</time>
      </trkpt>
      <trkpt lat="45.943" lon="6.50084">
        <ele>1101.1999511719</ele>
        <time>2013-11-30T14:32:32.000Z</time>
      </trkpt>
      <trkpt lat="45.94296" lon="6.5008">
        <ele>1101.4000244141</ele>
        <time>2013-11-30T14:32:34.000Z</time>
      </trkpt>
      <trkpt lat="45.94284" lon="6.50079">
        <ele>1101</ele>
        <time>2013-11-30T14:32:39.000Z</time>
      </trkpt>
      <trkpt lat="45.94279" lon="6.5008">
        <ele>1100.8000488281</ele>
        <time>2013-11-30T14:32:41.000Z</time>
      </trkpt>
      <trkpt lat="45.94255" lon="6.50078">
        <ele>1100.4000244141</ele>
        <time>2013-11-30T14:32:48.000Z</time>
      </trkpt>
      <trkpt lat="45.94245" lon="6.50074">
        <ele>1101.1999511719</ele>
        <time>2013-11-30T14:32:51.000Z</time>
      </trkpt>
      <trkpt lat="45.94231" lon="6.50067">
        <ele>1103.8000488281</ele>
        <time>2013-11-30T14:32:56.000Z</time>
      </trkpt>
      <trkpt lat="45.94218" lon="6.50057">
        <ele>1106</ele>
        <time>2013-11-30T14:33:01.000Z</time>
      </trkpt>
      <trkpt lat="45.94207" lon="6.50044">
        <ele>1107.1999511719</ele>
        <time>2013-11-30T14:33:06.000Z</time>
      </trkpt>
      <trkpt lat="45.94197" lon="6.50031">
        <ele>1107.8000488281</ele>
        <time>2013-11-30T14:33:12.000Z</time>
      </trkpt>
      <trkpt lat="45.9419" lon="6.50018">
        <ele>1107.8000488281</ele>
        <time>2013-11-30T14:33:17.000Z</time>
      </trkpt>
      <trkpt lat="45.94185" lon="6.50011">
        <ele>1107.8000488281</ele>
        <time>2013-11-30T14:33:20.000Z</time>
      </trkpt>
      <trkpt lat="45.94171" lon="6.49988">
        <ele>1108.5999755859</ele>
        <time>2013-11-30T14:33:28.000Z</time>
      </trkpt>
      <trkpt lat="45.94162" lon="6.49963">
        <ele>1111.4000244141</ele>
        <time>2013-11-30T14:33:33.000Z</time>
      </trkpt>
      <trkpt lat="45.94152" lon="6.49938">
        <ele>1114</ele>
        <time>2013-11-30T14:33:37.000Z</time>
      </trkpt>
      <trkpt lat="45.9415" lon="6.49932">
        <ele>1114.1999511719</ele>
        <time>2013-11-30T14:33:38.000Z</time>
      </trkpt>
      <trkpt lat="45.94141" lon="6.49912">
        <ele>1114.8000488281</ele>
        <time>2013-11-30T14:33:42.000Z</time>
      </trkpt>
      <trkpt lat="45.94136" lon="6.49907">
        <ele>1114.8000488281</ele>
        <time>2013-11-30T14:33:43.000Z</time>
      </trkpt>
      <trkpt lat="45.94129" lon="6.49903">
        <ele>1114.8000488281</ele>
        <time>2013-11-30T14:33:45.000Z</time>
      </trkpt>
      <trkpt lat="45.94124" lon="6.49894">
        <ele>1114.1999511719</ele>
        <time>2013-11-30T14:33:47.000Z</time>
      </trkpt>
      <trkpt lat="45.9412" lon="6.49877">
        <ele>1113.1999511719</ele>
        <time>2013-11-30T14:33:52.000Z</time>
      </trkpt>
      <trkpt lat="45.94117" lon="6.49857">
        <ele>1111.8000488281</ele>
        <time>2013-11-30T14:33:57.000Z</time>
      </trkpt>
      <trkpt lat="45.94112" lon="6.49839">
        <ele>1110.1999511719</ele>
        <time>2013-11-30T14:34:02.000Z</time>
      </trkpt>
      <trkpt lat="45.94107" lon="6.49826">
        <ele>1108.8000488281</ele>
        <time>2013-11-30T14:34:06.000Z</time>
      </trkpt>
      <trkpt lat="45.94104" lon="6.49816">
        <ele>1108</ele>
        <time>2013-11-30T14:34:10.000Z</time>
      </trkpt>
      <trkpt lat="45.94101" lon="6.49801">
        <ele>1107</ele>
        <time>2013-11-30T14:34:13.000Z</time>
      </trkpt>
      <trkpt lat="45.94099" lon="6.49796">
        <ele>1106.5999755859</ele>
        <time>2013-11-30T14:34:14.000Z</time>
      </trkpt>
      <trkpt lat="45.94089" lon="6.49772">
        <ele>1104.5999755859</ele>
        <time>2013-11-30T14:34:18.000Z</time>
      </trkpt>
      <trkpt lat="45.94075" lon="6.49753">
        <ele>1102.8000488281</ele>
        <time>2013-11-30T14:34:22.000Z</time>
      </trkpt>
      <trkpt lat="45.94069" lon="6.49747">
        <ele>1102</ele>
        <time>2013-11-30T14:34:23.000Z</time>
      </trkpt>
      <trkpt lat="45.94053" lon="6.49734">
        <ele>1099.8000488281</ele>
        <time>2013-11-30T14:34:27.000Z</time>
      </trkpt>
      <trkpt lat="45.94036" lon="6.4972">
        <ele>1097.5999755859</ele>
        <time>2013-11-30T14:34:31.000Z</time>
      </trkpt>
      <trkpt lat="45.94018" lon="6.49705">
        <ele>1095</ele>
        <time>2013-11-30T14:34:36.000Z</time>
      </trkpt>
      <trkpt lat="45.94014" lon="6.49703">
        <ele>1094.5999755859</ele>
        <time>2013-11-30T14:34:37.000Z</time>
      </trkpt>
      <trkpt lat="45.93992" lon="6.49684">
        <ele>1093</ele>
        <time>2013-11-30T14:34:43.000Z</time>
      </trkpt>
      <trkpt lat="45.93977" lon="6.49668">
        <ele>1093</ele>
        <time>2013-11-30T14:34:48.000Z</time>
      </trkpt>
      <trkpt lat="45.93971" lon="6.49662">
        <ele>1093.1999511719</ele>
        <time>2013-11-30T14:34:50.000Z</time>
      </trkpt>
      <trkpt lat="45.93957" lon="6.49646">
        <ele>1093.4000244141</ele>
        <time>2013-11-30T14:34:55.000Z</time>
      </trkpt>
      <trkpt lat="45.93943" lon="6.49629">
        <ele>1092.8000488281</ele>
        <time>2013-11-30T14:35:00.000Z</time>
      </trkpt>
      <trkpt lat="45.93927" lon="6.49609">
        <ele>1091.1999511719</ele>
        <time>2013-11-30T14:35:05.000Z</time>
      </trkpt>
      <trkpt lat="45.93916" lon="6.49589">
        <ele>1089</ele>
        <time>2013-11-30T14:35:10.000Z</time>
      </trkpt>
      <trkpt lat="45.93909" lon="6.49568">
        <ele>1089.1999511719</ele>
        <time>2013-11-30T14:35:15.000Z</time>
      </trkpt>
      <trkpt lat="45.93905" lon="6.49545">
        <ele>1089</ele>
        <time>2013-11-30T14:35:20.000Z</time>
      </trkpt>
      <trkpt lat="45.93905" lon="6.49539">
        <ele>1088.8000488281</ele>
        <time>2013-11-30T14:35:22.000Z</time>
      </trkpt>
      <trkpt lat="45.93892" lon="6.49509">
        <ele>1087.8000488281</ele>
        <time>2013-11-30T14:35:29.000Z</time>
      </trkpt>
      <trkpt lat="45.93882" lon="6.49493">
        <ele>1086.8000488281</ele>
        <time>2013-11-30T14:35:33.000Z</time>
      </trkpt>
      <trkpt lat="45.93869" lon="6.49471">
        <ele>1085.5999755859</ele>
        <time>2013-11-30T14:35:37.000Z</time>
      </trkpt>
      <trkpt lat="45.93863" lon="6.49463">
        <ele>1084.8000488281</ele>
        <time>2013-11-30T14:35:39.000Z</time>
      </trkpt>
      <trkpt lat="45.93857" lon="6.49454">
        <ele>1083.8000488281</ele>
        <time>2013-11-30T14:35:41.000Z</time>
      </trkpt>
      <trkpt lat="45.93848" lon="6.49442">
        <ele>1082</ele>
        <time>2013-11-30T14:35:44.000Z</time>
      </trkpt>
      <trkpt lat="45.93842" lon="6.49437">
        <ele>1081</ele>
        <time>2013-11-30T14:35:46.000Z</time>
      </trkpt>
      <trkpt lat="45.93829" lon="6.49419">
        <ele>1079</ele>
        <time>2013-11-30T14:35:51.000Z</time>
      </trkpt>
      <trkpt lat="45.93821" lon="6.49403">
        <ele>1080</ele>
        <time>2013-11-30T14:35:54.000Z</time>
      </trkpt>
      <trkpt lat="45.93808" lon="6.49381">
        <ele>1081</ele>
        <time>2013-11-30T14:35:59.000Z</time>
      </trkpt>
      <trkpt lat="45.93794" lon="6.49357">
        <ele>1080.8000488281</ele>
        <time>2013-11-30T14:36:04.000Z</time>
      </trkpt>
      <trkpt lat="45.93792" lon="6.49351">
        <ele>1080.5999755859</ele>
        <time>2013-11-30T14:36:05.000Z</time>
      </trkpt>
      <trkpt lat="45.93789" lon="6.49347">
        <ele>1080.1999511719</ele>
        <time>2013-11-30T14:36:06.000Z</time>
      </trkpt>
      <trkpt lat="45.93783" lon="6.49334">
        <ele>1079.1999511719</ele>
        <time>2013-11-30T14:36:09.000Z</time>
      </trkpt>
      <trkpt lat="45.93771" lon="6.49315">
        <ele>1079.1999511719</ele>
        <time>2013-11-30T14:36:14.000Z</time>
      </trkpt>
      <trkpt lat="45.9377" lon="6.49312">
        <ele>1079.1999511719</ele>
        <time>2013-11-30T14:36:15.000Z</time>
      </trkpt>
      <trkpt lat="45.93758" lon="6.49293">
        <ele>1078.8000488281</ele>
        <time>2013-11-30T14:36:20.000Z</time>
      </trkpt>
      <trkpt lat="45.93756" lon="6.4929">
        <ele>1078.5999755859</ele>
        <time>2013-11-30T14:36:21.000Z</time>
      </trkpt>
      <trkpt lat="45.93754" lon="6.49284">
        <ele>1078.4000244141</ele>
        <time>2013-11-30T14:36:22.000Z</time>
      </trkpt>
      <trkpt lat="45.93745" lon="6.49255">
        <ele>1077.1999511719</ele>
        <time>2013-11-30T14:36:27.000Z</time>
      </trkpt>
      <trkpt lat="45.93732" lon="6.4923">
        <ele>1074.5999755859</ele>
        <time>2013-11-30T14:36:31.000Z</time>
      </trkpt>
      <trkpt lat="45.93718" lon="6.49205">
        <ele>1072</ele>
        <time>2013-11-30T14:36:35.000Z</time>
      </trkpt>
      <trkpt lat="45.93715" lon="6.49199">
        <ele>1071.4000244141</ele>
        <time>2013-11-30T14:36:36.000Z</time>
      </trkpt>
      <trkpt lat="45.93705" lon="6.49183">
        <ele>1069.5999755859</ele>
        <time>2013-11-30T14:36:39.000Z</time>
      </trkpt>
      <trkpt lat="45.93695" lon="6.49168">
        <ele>1068.1999511719</ele>
        <time>2013-11-30T14:36:42.000Z</time>
      </trkpt>
      <trkpt lat="45.93679" lon="6.49142">
        <ele>1067.4000244141</ele>
        <time>2013-11-30T14:36:46.000Z</time>
      </trkpt>
      <trkpt lat="45.93675" lon="6.49137">
        <ele>1067.1999511719</ele>
        <time>2013-11-30T14:36:47.000Z</time>
      </trkpt>
      <trkpt lat="45.93664" lon="6.49123">
        <ele>1066.5999755859</ele>
        <time>2013-11-30T14:36:50.000Z</time>
      </trkpt>
      <trkpt lat="45.93651" lon="6.49098">
        <ele>1066.1999511719</ele>
        <time>2013-11-30T14:36:54.000Z</time>
      </trkpt>
      <trkpt lat="45.93648" lon="6.49092">
        <ele>1066</ele>
        <time>2013-11-30T14:36:55.000Z</time>
      </trkpt>
      <trkpt lat="45.93643" lon="6.49082">
        <ele>1065.4000244141</ele>
        <time>2013-11-30T14:36:57.000Z</time>
      </trkpt>
      <trkpt lat="45.93635" lon="6.4905">
        <ele>1064.1999511719</ele>
        <time>2013-11-30T14:37:02.000Z</time>
      </trkpt>
      <trkpt lat="45.93626" lon="6.4903">
        <ele>1063.4000244141</ele>
        <time>2013-11-30T14:37:06.000Z</time>
      </trkpt>
      <trkpt lat="45.9362" lon="6.49021">
        <ele>1063</ele>
        <time>2013-11-30T14:37:08.000Z</time>
      </trkpt>
      <trkpt lat="45.93614" lon="6.49011">
        <ele>1062.5999755859</ele>
        <time>2013-11-30T14:37:10.000Z</time>
      </trkpt>
      <trkpt lat="45.936" lon="6.48996">
        <ele>1062</ele>
        <time>2013-11-30T14:37:14.000Z</time>
      </trkpt>
      <trkpt lat="45.93598" lon="6.48994">
        <ele>1062.1999511719</ele>
        <time>2013-11-30T14:37:15.000Z</time>
      </trkpt>
      <trkpt lat="45.93594" lon="6.48987">
        <ele>1062.4000244141</ele>
        <time>2013-11-30T14:37:16.000Z</time>
      </trkpt>
      <trkpt lat="45.93588" lon="6.48972">
        <ele>1062.5999755859</ele>
        <time>2013-11-30T14:37:19.000Z</time>
      </trkpt>
      <trkpt lat="45.93585" lon="6.4895">
        <ele>1063.1999511719</ele>
        <time>2013-11-30T14:37:23.000Z</time>
      </trkpt>
      <trkpt lat="45.9358" lon="6.48924">
        <ele>1063.8000488281</ele>
        <time>2013-11-30T14:37:29.000Z</time>
      </trkpt>
      <trkpt lat="45.93571" lon="6.48903">
        <ele>1063</ele>
        <time>2013-11-30T14:37:34.000Z</time>
      </trkpt>
      <trkpt lat="45.93559" lon="6.4889">
        <ele>1062</ele>
        <time>2013-11-30T14:37:38.000Z</time>
      </trkpt>
      <trkpt lat="45.93542" lon="6.48874">
        <ele>1060.8000488281</ele>
        <time>2013-11-30T14:37:43.000Z</time>
      </trkpt>
      <trkpt lat="45.93533" lon="6.48861">
        <ele>1060</ele>
        <time>2013-11-30T14:37:46.000Z</time>
      </trkpt>
      <trkpt lat="45.93528" lon="6.48851">
        <ele>1059.5999755859</ele>
        <time>2013-11-30T14:37:48.000Z</time>
      </trkpt>
      <trkpt lat="45.93523" lon="6.48837">
        <ele>1059</ele>
        <time>2013-11-30T14:37:51.000Z</time>
      </trkpt>
      <trkpt lat="45.93516" lon="6.48821">
        <ele>1058.1999511719</ele>
        <time>2013-11-30T14:37:54.000Z</time>
      </trkpt>
      <trkpt lat="45.93511" lon="6.48807">
        <ele>1057.5999755859</ele>
        <time>2013-11-30T14:37:57.000Z</time>
      </trkpt>
      <trkpt lat="45.93504" lon="6.48786">
        <ele>1057</ele>
        <time>2013-11-30T14:38:01.000Z</time>
      </trkpt>
      <trkpt lat="45.93497" lon="6.48753">
        <ele>1056</ele>
        <time>2013-11-30T14:38:07.000Z</time>
      </trkpt>
      <trkpt lat="45.93496" lon="6.48732">
        <ele>1055.5999755859</ele>
        <time>2013-11-30T14:38:11.000Z</time>
      </trkpt>
      <trkpt lat="45.93496" lon="6.48713">
        <ele>1055.4000244141</ele>
        <time>2013-11-30T14:38:15.000Z</time>
      </trkpt>
      <trkpt lat="45.935" lon="6.48684">
        <ele>1055.1999511719</ele>
        <time>2013-11-30T14:38:20.000Z</time>
      </trkpt>
      <trkpt lat="45.93503" lon="6.48658">
        <ele>1055.1999511719</ele>
        <time>2013-11-30T14:38:25.000Z</time>
      </trkpt>
      <trkpt lat="45.93506" lon="6.48633">
        <ele>1055.1999511719</ele>
        <time>2013-11-30T14:38:30.000Z</time>
      </trkpt>
      <trkpt lat="45.93506" lon="6.48611">
        <ele>1055</ele>
        <time>2013-11-30T14:38:35.000Z</time>
      </trkpt>
      <trkpt lat="45.93506" lon="6.48606">
        <ele>1055</ele>
        <time>2013-11-30T14:38:36.000Z</time>
      </trkpt>
    </trkseg>
  </trk>
</gpx>